Time,TemperatureF,DewpointF,PressureIn,WindDirection,WindDirectionDegrees,WindSpeedMPH,WindSpeedGustMPH,Humidity,HourlyPrecipIn,Conditions,Clouds,dailyrainin,SoftwareType,DateUTC
2013-02-11 00:00:00,15.6,13.2,30.26,West,263,0.0,0.0,90,0.00,,---,0.42,VWS V14.01,2013-02-11 05:00:00,
2013-02-11 00:05:00,15.6,13.2,30.26,West,263,0.0,0.0,90,0.00,,---,0.00,VWS V14.01,2013-02-11 05:05:00,
2013-02-11 00:10:00,15.6,13.2,30.26,West,263,0.0,0.0,90,0.00,,---,0.00,VWS V14.01,2013-02-11 05:10:00,
2013-02-11 00:15:00,15.4,13.0,30.26,West,263,0.0,0.0,90,0.00,,---,0.00,VWS V14.01,2013-02-11 05:15:00,
2013-02-11 00:16:00,15.4,13.0,30.26,West,263,0.0,0.0,90,0.00,,---,0.00,VWS V14.01,2013-02-11 05:16:00,
2013-02-11 00:20:00,15.4,13.0,30.26,West,263,0.0,0.0,90,0.00,,---,0.00,VWS V14.01,2013-02-11 05:20:00,
2013-02-11 00:21:00,15.4,13.0,30.26,West,263,0.0,0.0,90,0.00,,---,0.00,VWS V14.01,2013-02-11 05:21:00,
2013-02-11 00:25:00,15.4,13.0,30.26,West,263,0.0,0.0,90,0.00,,---,0.00,VWS V14.01,2013-02-11 05:25:00,
2013-02-11 00:26:00,15.4,13.0,30.26,West,263,0.0,0.0,90,0.00,,---,0.00,VWS V14.01,2013-02-11 05:26:00,
2013-02-11 00:30:00,15.4,13.0,30.26,West,263,0.0,0.0,90,0.00,,---,0.00,VWS V14.01,2013-02-11 05:30:00,
2013-02-11 00:31:00,15.4,13.0,30.26,West,263,0.0,0.0,90,0.00,,---,0.00,VWS V14.01,2013-02-11 05:31:00,
2013-02-11 00:35:00,15.6,13.2,30.26,West,263,0.0,0.0,90,0.00,,---,0.00,VWS V14.01,2013-02-11 05:35:00,
2013-02-11 00:36:00,15.6,13.2,30.26,West,263,0.0,0.0,90,0.00,,---,0.00,VWS V14.01,2013-02-11 05:36:00,
2013-02-11 00:40:00,16.1,13.9,30.26,West,263,0.0,0.0,91,0.00,,---,0.00,VWS V14.01,2013-02-11 05:40:00,
2013-02-11 00:41:00,16.1,13.9,30.26,West,263,0.0,0.0,91,0.00,,---,0.00,VWS V14.01,2013-02-11 05:41:00,
2013-02-11 00:45:00,16.4,14.5,30.26,West,263,0.0,0.0,92,0.00,,---,0.00,VWS V14.01,2013-02-11 05:45:00,
2013-02-11 00:46:00,16.5,14.6,30.26,West,263,0.0,0.0,92,0.00,,---,0.00,VWS V14.01,2013-02-11 05:46:00,
2013-02-11 00:50:00,16.5,14.6,30.26,West,263,0.0,0.0,92,0.00,,---,0.00,VWS V14.01,2013-02-11 05:50:00,
2013-02-11 00:51:00,16.5,14.6,30.26,West,263,0.0,0.0,92,0.00,,---,0.00,VWS V14.01,2013-02-11 05:51:00,
2013-02-11 00:55:00,16.7,14.5,30.26,West,263,0.0,0.0,91,0.00,,---,0.00,VWS V14.01,2013-02-11 05:55:00,
2013-02-11 00:56:00,16.7,14.5,30.26,West,263,0.0,0.0,91,0.00,,---,0.00,VWS V14.01,2013-02-11 05:56:00,
2013-02-11 01:00:00,16.7,14.5,30.25,West,263,0.0,0.0,91,0.00,,---,0.00,VWS V14.01,2013-02-11 06:00:00,
2013-02-11 01:01:00,16.7,14.5,30.25,West,263,0.0,0.0,91,0.00,,---,0.00,VWS V14.01,2013-02-11 06:01:00,
2013-02-11 01:06:00,16.9,15.0,30.25,West,263,0.0,0.0,92,0.00,,---,0.00,VWS V14.01,2013-02-11 06:06:00,
2013-02-11 01:11:00,17.2,15.3,30.25,West,263,0.0,0.0,92,0.00,,---,0.00,VWS V14.01,2013-02-11 06:11:00,
2013-02-11 01:12:00,17.2,15.3,30.25,West,263,0.0,0.0,92,0.00,,---,0.00,VWS V14.01,2013-02-11 06:12:00,
2013-02-11 01:16:00,17.2,15.0,30.25,West,263,0.0,0.0,91,0.00,,---,0.00,VWS V14.01,2013-02-11 06:16:00,
2013-02-11 01:17:00,17.2,15.0,30.25,West,263,0.0,0.0,91,0.00,,---,0.00,VWS V14.01,2013-02-11 06:17:00,
2013-02-11 01:21:00,17.3,15.1,30.25,West,263,0.0,0.0,91,0.00,,---,0.00,VWS V14.01,2013-02-11 06:21:00,
2013-02-11 01:22:00,17.5,15.6,30.25,West,263,0.0,0.0,92,0.00,,---,0.00,VWS V14.01,2013-02-11 06:22:00,
2013-02-11 01:26:00,17.7,15.8,30.25,West,263,0.0,0.0,92,0.00,,---,0.00,VWS V14.01,2013-02-11 06:26:00,
2013-02-11 01:27:00,17.7,15.8,30.25,West,263,0.0,0.0,92,0.00,,---,0.00,VWS V14.01,2013-02-11 06:27:00,
2013-02-11 01:31:00,18.1,16.2,30.24,West,263,0.0,0.0,92,0.00,,---,0.00,VWS V14.01,2013-02-11 06:31:00,
2013-02-11 01:32:00,18.1,16.2,30.24,West,263,0.0,0.0,92,0.00,,---,0.00,VWS V14.01,2013-02-11 06:32:00,
2013-02-11 01:36:00,18.3,16.4,30.24,West,263,0.0,0.0,92,0.00,,---,0.00,VWS V14.01,2013-02-11 06:36:00,
2013-02-11 01:37:00,18.3,16.4,30.24,West,263,0.0,0.0,92,0.00,,---,0.00,VWS V14.01,2013-02-11 06:37:00,
2013-02-11 01:41:00,18.3,16.1,30.24,West,263,0.0,0.0,91,0.00,,---,0.00,VWS V14.01,2013-02-11 06:41:00,
2013-02-11 01:42:00,18.4,16.2,30.24,West,263,0.0,0.0,91,0.00,,---,0.00,VWS V14.01,2013-02-11 06:42:00,
2013-02-11 01:43:00,18.4,16.2,30.24,West,263,0.0,0.0,91,0.00,,---,0.00,VWS V14.01,2013-02-11 06:43:00,
2013-02-11 01:46:00,18.4,16.5,30.23,West,263,0.0,0.0,92,0.00,,---,0.00,VWS V14.01,2013-02-11 06:46:00,
2013-02-11 01:47:00,18.4,16.5,30.23,West,263,0.0,0.0,92,0.00,,---,0.00,VWS V14.01,2013-02-11 06:47:00,
2013-02-11 01:48:00,18.4,16.5,30.23,West,263,0.0,0.0,92,0.00,,---,0.00,VWS V14.01,2013-02-11 06:48:00,
2013-02-11 01:51:00,18.6,16.7,30.23,West,263,0.0,0.0,92,0.00,,---,0.00,VWS V14.01,2013-02-11 06:51:00,
2013-02-11 01:52:00,18.6,16.7,30.23,West,263,0.0,0.0,92,0.00,,---,0.00,VWS V14.01,2013-02-11 06:52:00,
2013-02-11 01:53:00,18.6,16.7,30.23,West,263,0.0,0.0,92,0.00,,---,0.00,VWS V14.01,2013-02-11 06:53:00,
2013-02-11 01:56:00,18.8,16.9,30.23,West,263,0.0,0.0,92,0.00,,---,0.00,VWS V14.01,2013-02-11 06:56:00,
2013-02-11 01:57:00,18.8,16.9,30.23,West,263,0.0,0.0,92,0.00,,---,0.00,VWS V14.01,2013-02-11 06:57:00,
2013-02-11 01:58:00,18.8,16.9,30.23,West,263,0.0,0.0,92,0.00,,---,0.00,VWS V14.01,2013-02-11 06:58:00,
2013-02-11 02:02:00,18.8,16.6,30.23,West,263,0.0,0.0,91,0.00,,---,0.00,VWS V14.01,2013-02-11 07:02:00,
2013-02-11 02:03:00,18.8,16.6,30.23,West,263,0.0,0.0,91,0.00,,---,0.00,VWS V14.01,2013-02-11 07:03:00,
2013-02-11 02:07:00,18.9,16.7,30.23,West,263,0.0,0.0,91,0.00,,---,0.00,VWS V14.01,2013-02-11 07:07:00,
2013-02-11 02:08:00,18.9,16.7,30.23,West,263,0.0,0.0,91,0.00,,---,0.00,VWS V14.01,2013-02-11 07:08:00,
2013-02-11 02:12:00,18.9,16.7,30.23,West,263,0.0,0.0,91,0.00,,---,0.00,VWS V14.01,2013-02-11 07:12:00,
2013-02-11 02:13:00,18.9,16.7,30.23,West,263,0.0,0.0,91,0.00,,---,0.00,VWS V14.01,2013-02-11 07:13:00,
2013-02-11 02:14:00,18.9,16.7,30.23,West,263,0.0,0.0,91,0.00,,---,0.00,VWS V14.01,2013-02-11 07:14:00,
2013-02-11 02:17:00,18.9,16.7,30.22,West,263,0.0,0.0,91,0.00,,---,0.00,VWS V14.01,2013-02-11 07:17:00,
2013-02-11 02:18:00,18.9,16.7,30.22,West,263,0.0,0.0,91,0.00,,---,0.00,VWS V14.01,2013-02-11 07:18:00,
2013-02-11 02:19:00,19.1,16.9,30.22,West,263,0.0,0.0,91,0.00,,---,0.00,VWS V14.01,2013-02-11 07:19:00,
2013-02-11 02:22:00,19.1,16.9,30.22,West,263,0.0,0.0,91,0.00,,---,0.00,VWS V14.01,2013-02-11 07:22:00,
2013-02-11 02:23:00,19.1,16.9,30.22,West,263,0.0,0.0,91,0.00,,---,0.00,VWS V14.01,2013-02-11 07:23:00,
2013-02-11 02:24:00,19.1,16.9,30.22,West,263,0.0,0.0,91,0.00,,---,0.00,VWS V14.01,2013-02-11 07:24:00,
2013-02-11 02:27:00,19.1,16.9,30.22,West,263,0.0,0.0,91,0.00,,---,0.00,VWS V14.01,2013-02-11 07:27:00,
2013-02-11 02:28:00,19.1,16.9,30.22,West,263,0.0,0.0,91,0.00,,---,0.00,VWS V14.01,2013-02-11 07:28:00,
2013-02-11 02:29:00,19.1,16.9,30.22,West,263,0.0,0.0,91,0.00,,---,0.00,VWS V14.01,2013-02-11 07:29:00,
2013-02-11 02:32:00,19.1,16.9,30.21,West,263,0.0,0.0,91,0.00,,---,0.00,VWS V14.01,2013-02-11 07:32:00,
2013-02-11 02:33:00,19.1,16.9,30.21,West,263,0.0,0.0,91,0.00,,---,0.00,VWS V14.01,2013-02-11 07:33:00,
2013-02-11 02:34:00,19.1,16.9,30.21,West,263,0.0,0.0,91,0.00,,---,0.00,VWS V14.01,2013-02-11 07:34:00,
2013-02-11 02:37:00,19.1,16.9,30.21,West,263,0.0,0.0,91,0.00,,---,0.00,VWS V14.01,2013-02-11 07:37:00,
2013-02-11 02:38:00,19.1,16.9,30.21,West,263,0.0,0.0,91,0.00,,---,0.00,VWS V14.01,2013-02-11 07:38:00,
2013-02-11 02:39:00,19.1,16.9,30.21,West,263,0.0,0.0,91,0.00,,---,0.00,VWS V14.01,2013-02-11 07:39:00,
2013-02-11 02:42:00,19.1,16.9,30.21,West,263,0.0,0.0,91,0.00,,---,0.00,VWS V14.01,2013-02-11 07:42:00,
2013-02-11 02:43:00,19.1,16.9,30.21,West,263,0.0,0.0,91,0.00,,---,0.00,VWS V14.01,2013-02-11 07:43:00,
2013-02-11 02:44:00,19.1,16.9,30.21,West,263,0.0,0.0,91,0.00,,---,0.00,VWS V14.01,2013-02-11 07:44:00,
2013-02-11 02:48:00,19.2,17.0,30.21,West,263,0.0,0.0,91,0.00,,---,0.00,VWS V14.01,2013-02-11 07:48:00,
2013-02-11 02:49:00,19.2,17.0,30.21,West,263,0.0,0.0,91,0.00,,---,0.00,VWS V14.01,2013-02-11 07:49:00,
2013-02-11 02:53:00,19.4,17.2,30.21,West,263,0.0,0.0,91,0.00,,---,0.00,VWS V14.01,2013-02-11 07:53:00,
2013-02-11 02:54:00,19.4,17.2,30.21,West,263,0.0,0.0,91,0.00,,---,0.00,VWS V14.01,2013-02-11 07:54:00,
2013-02-11 02:58:00,19.5,17.3,30.21,West,263,0.0,0.0,91,0.00,,---,0.00,VWS V14.01,2013-02-11 07:58:00,
2013-02-11 02:59:00,19.5,17.3,30.21,West,263,0.0,0.0,91,0.00,,---,0.00,VWS V14.01,2013-02-11 07:59:00,
2013-02-11 03:03:00,19.5,17.3,30.20,West,263,0.0,0.0,91,0.00,,---,0.00,VWS V14.01,2013-02-11 08:03:00,
2013-02-11 03:04:00,19.5,17.3,30.20,West,263,0.0,0.0,91,0.00,,---,0.00,VWS V14.01,2013-02-11 08:04:00,
2013-02-11 03:08:00,19.7,17.5,30.20,West,263,0.0,0.0,91,0.00,,---,0.00,VWS V14.01,2013-02-11 08:08:00,
2013-02-11 03:09:00,19.7,17.5,30.20,West,263,0.0,0.0,91,0.00,,---,0.00,VWS V14.01,2013-02-11 08:09:00,
2013-02-11 03:10:00,19.7,17.5,30.20,West,263,0.0,0.0,91,0.00,,---,0.00,VWS V14.01,2013-02-11 08:10:00,
2013-02-11 03:13:00,19.9,18.0,30.20,West,263,0.0,0.0,92,0.00,,---,0.00,VWS V14.01,2013-02-11 08:13:00,
2013-02-11 03:14:00,19.9,18.0,30.20,West,263,0.0,0.0,92,0.00,,---,0.00,VWS V14.01,2013-02-11 08:14:00,
2013-02-11 03:15:00,19.9,18.0,30.19,West,263,0.0,0.0,92,0.00,,---,0.00,VWS V14.01,2013-02-11 08:15:00,
2013-02-11 03:19:00,20.2,18.2,30.19,West,263,0.0,0.0,92,0.00,,---,0.00,VWS V14.01,2013-02-11 08:19:00,
2013-02-11 03:20:00,20.2,18.2,30.19,West,263,0.0,0.0,92,0.00,,---,0.00,VWS V14.01,2013-02-11 08:20:00,
2013-02-11 03:24:00,20.3,18.4,30.19,West,263,0.0,0.0,92,0.00,,---,0.00,VWS V14.01,2013-02-11 08:24:00,
2013-02-11 03:25:00,20.3,18.4,30.19,West,263,0.0,0.0,92,0.00,,---,0.00,VWS V14.01,2013-02-11 08:25:00,
2013-02-11 03:29:00,20.3,18.4,30.19,West,263,0.0,0.0,92,0.00,,---,0.00,VWS V14.01,2013-02-11 08:29:00,
2013-02-11 03:30:00,20.3,18.4,30.18,West,263,0.0,0.0,92,0.00,,---,0.00,VWS V14.01,2013-02-11 08:30:00,
2013-02-11 03:34:00,20.5,18.5,30.18,West,263,0.0,0.0,92,0.00,,---,0.00,VWS V14.01,2013-02-11 08:34:00,
2013-02-11 03:35:00,20.5,18.5,30.18,West,263,0.0,0.0,92,0.00,,---,0.00,VWS V14.01,2013-02-11 08:35:00,
2013-02-11 03:39:00,20.6,18.6,30.18,West,263,0.0,0.0,92,0.00,,---,0.00,VWS V14.01,2013-02-11 08:39:00,
2013-02-11 03:40:00,20.6,18.6,30.18,West,263,0.0,0.0,92,0.00,,---,0.00,VWS V14.01,2013-02-11 08:40:00,
2013-02-11 03:44:00,20.8,18.9,30.18,West,263,0.0,0.0,92,0.00,,---,0.00,VWS V14.01,2013-02-11 08:44:00,
2013-02-11 03:45:00,20.8,18.9,30.17,West,263,0.0,0.0,92,0.00,,---,0.00,VWS V14.01,2013-02-11 08:45:00,
2013-02-11 03:50:00,21.0,19.0,30.17,West,263,0.0,0.0,92,0.00,,---,0.00,VWS V14.01,2013-02-11 08:50:00,
2013-02-11 03:55:00,21.1,19.1,30.17,West,263,0.0,0.0,92,0.00,,---,0.00,VWS V14.01,2013-02-11 08:55:00,
2013-02-11 04:00:00,21.1,19.1,30.16,West,263,0.0,0.0,92,0.00,,---,0.00,VWS V14.01,2013-02-11 09:00:00,
2013-02-11 04:05:00,21.3,19.3,30.16,West,263,0.0,0.0,92,0.00,,---,0.00,VWS V14.01,2013-02-11 09:05:00,
2013-02-11 04:10:00,21.4,19.7,30.16,West,263,0.0,0.0,93,0.00,,---,0.00,VWS V14.01,2013-02-11 09:10:00,
2013-02-11 04:15:00,21.9,20.4,30.14,West,263,0.0,0.0,94,0.00,,---,0.00,VWS V14.01,2013-02-11 09:15:00,
2013-02-11 04:16:00,22.1,20.6,30.14,West,263,0.0,0.0,94,0.00,,---,0.00,VWS V14.01,2013-02-11 09:16:00,
2013-02-11 04:20:00,22.2,20.7,30.14,West,263,0.0,0.0,94,0.00,,---,0.00,VWS V14.01,2013-02-11 09:20:00,
2013-02-11 04:21:00,22.1,20.6,30.14,West,263,0.0,0.0,94,0.00,,---,0.00,VWS V14.01,2013-02-11 09:21:00,
2013-02-11 04:25:00,22.1,20.6,30.14,West,263,0.0,0.0,94,0.00,,---,0.00,VWS V14.01,2013-02-11 09:25:00,
2013-02-11 04:26:00,22.1,20.6,30.14,West,263,0.0,0.0,94,0.00,,---,0.00,VWS V14.01,2013-02-11 09:26:00,
2013-02-11 04:30:00,21.9,20.2,30.14,West,263,0.0,0.0,93,0.00,,---,0.00,VWS V14.01,2013-02-11 09:30:00,
2013-02-11 04:31:00,21.9,20.2,30.14,West,263,0.0,0.0,93,0.00,,---,0.00,VWS V14.01,2013-02-11 09:31:00,
2013-02-11 04:35:00,21.8,20.1,30.14,West,263,0.0,0.0,93,0.00,,---,0.00,VWS V14.01,2013-02-11 09:35:00,
2013-02-11 04:36:00,21.8,20.1,30.14,West,263,0.0,0.0,93,0.00,,---,0.00,VWS V14.01,2013-02-11 09:36:00,
2013-02-11 04:40:00,21.8,20.1,30.14,West,263,0.0,0.0,93,0.00,,---,0.00,VWS V14.01,2013-02-11 09:40:00,
2013-02-11 04:41:00,21.8,20.1,30.14,West,263,0.0,0.0,93,0.00,,---,0.00,VWS V14.01,2013-02-11 09:41:00,
2013-02-11 04:45:00,21.8,20.1,30.15,West,263,0.0,0.0,93,0.00,,---,0.00,VWS V14.01,2013-02-11 09:45:00,
2013-02-11 04:46:00,21.8,20.1,30.15,West,263,0.0,0.0,93,0.00,,---,0.00,VWS V14.01,2013-02-11 09:46:00,
2013-02-11 04:50:00,21.8,20.1,30.15,West,263,0.0,0.0,93,0.00,,---,0.00,VWS V14.01,2013-02-11 09:50:00,
2013-02-11 04:51:00,21.8,20.1,30.15,West,263,0.0,0.0,93,0.00,,---,0.00,VWS V14.01,2013-02-11 09:51:00,
2013-02-11 04:52:00,21.8,20.1,30.15,West,263,0.0,0.0,93,0.00,,---,0.00,VWS V14.01,2013-02-11 09:52:00,
2013-02-11 04:55:00,21.9,20.2,30.15,West,263,0.0,0.0,93,0.00,,---,0.00,VWS V14.01,2013-02-11 09:55:00,
2013-02-11 04:56:00,21.9,20.2,30.15,West,263,0.0,0.0,93,0.00,,---,0.00,VWS V14.01,2013-02-11 09:56:00,
2013-02-11 04:57:00,22.1,20.4,30.15,West,263,0.0,0.0,93,0.00,,---,0.00,VWS V14.01,2013-02-11 09:57:00,
2013-02-11 05:01:00,22.2,20.5,30.16,West,263,0.0,0.0,93,0.00,,---,0.00,VWS V14.01,2013-02-11 10:01:00,
2013-02-11 05:02:00,22.2,20.5,30.16,West,263,0.0,0.0,93,0.00,,---,0.00,VWS V14.01,2013-02-11 10:02:00,
2013-02-11 05:06:00,22.4,20.7,30.16,West,263,0.0,0.0,93,0.00,,---,0.00,VWS V14.01,2013-02-11 10:06:00,
2013-02-11 05:07:00,22.4,20.7,30.16,West,263,0.0,0.0,93,0.00,,---,0.00,VWS V14.01,2013-02-11 10:07:00,
2013-02-11 05:11:00,22.5,21.0,30.16,West,263,0.0,0.0,94,0.00,,---,0.00,VWS V14.01,2013-02-11 10:11:00,
2013-02-11 05:12:00,22.5,21.0,30.16,West,263,0.0,0.0,94,0.00,,---,0.00,VWS V14.01,2013-02-11 10:12:00,
2013-02-11 05:16:00,22.9,21.4,30.15,West,263,0.0,0.0,94,0.00,,---,0.00,VWS V14.01,2013-02-11 10:16:00,
2013-02-11 05:17:00,23.0,21.5,30.15,West,263,0.0,0.0,94,0.00,,---,0.00,VWS V14.01,2013-02-11 10:17:00,
2013-02-11 05:21:00,23.2,21.7,30.15,West,263,0.0,0.0,94,0.00,,---,0.00,VWS V14.01,2013-02-11 10:21:00,
2013-02-11 05:22:00,23.3,21.8,30.15,West,263,0.0,0.0,94,0.00,,---,0.00,VWS V14.01,2013-02-11 10:22:00,
2013-02-11 05:26:00,23.3,21.8,30.15,West,263,0.0,0.0,94,0.00,,---,0.00,VWS V14.01,2013-02-11 10:26:00,
2013-02-11 05:27:00,23.3,21.8,30.15,West,263,0.0,0.0,94,0.00,,---,0.00,VWS V14.01,2013-02-11 10:27:00,
2013-02-11 05:31:00,23.3,21.8,30.15,West,263,0.0,0.0,94,0.00,,---,0.00,VWS V14.01,2013-02-11 10:31:00,
2013-02-11 05:32:00,23.3,21.8,30.15,West,263,0.0,0.0,94,0.00,,---,0.00,VWS V14.01,2013-02-11 10:32:00,
2013-02-11 05:36:00,23.3,21.8,30.15,West,263,0.0,0.0,94,0.00,,---,0.00,VWS V14.01,2013-02-11 10:36:00,
2013-02-11 05:37:00,23.3,21.8,30.15,West,263,0.0,0.0,94,0.00,,---,0.00,VWS V14.01,2013-02-11 10:37:00,
2013-02-11 05:38:00,23.3,21.8,30.15,West,263,0.0,0.0,94,0.00,,---,0.00,VWS V14.01,2013-02-11 10:38:00,
2013-02-11 05:41:00,23.5,22.0,30.15,West,263,0.0,0.0,94,0.00,,---,0.00,VWS V14.01,2013-02-11 10:41:00,
2013-02-11 05:43:00,23.5,22.0,30.15,West,263,0.0,0.0,94,0.00,,---,0.00,VWS V14.01,2013-02-11 10:43:00,
2013-02-11 05:46:00,23.8,22.3,30.13,West,263,1.0,1.0,94,0.00,,---,0.00,VWS V14.01,2013-02-11 10:46:00,
2013-02-11 05:48:00,23.6,22.1,30.13,West,263,0.0,1.0,94,0.00,,---,0.00,VWS V14.01,2013-02-11 10:48:00,
2013-02-11 05:51:00,23.5,22.0,30.13,West,263,0.0,1.0,94,0.00,,---,0.00,VWS V14.01,2013-02-11 10:51:00,
2013-02-11 05:52:00,23.5,22.0,30.13,West,263,0.0,1.0,94,0.00,,---,0.00,VWS V14.01,2013-02-11 10:52:00,
2013-02-11 05:53:00,23.5,22.0,30.13,West,263,0.0,1.0,94,0.00,,---,0.00,VWS V14.01,2013-02-11 10:53:00,
2013-02-11 05:56:00,23.5,22.0,30.13,West,263,0.0,1.0,94,0.00,,---,0.00,VWS V14.01,2013-02-11 10:56:00,
2013-02-11 05:57:00,23.5,22.0,30.13,West,263,0.0,1.0,94,0.00,,---,0.00,VWS V14.01,2013-02-11 10:57:00,
2013-02-11 05:58:00,23.6,22.1,30.13,West,263,0.0,1.0,94,0.00,,---,0.00,VWS V14.01,2013-02-11 10:58:00,
2013-02-11 06:01:00,23.6,22.1,30.13,West,263,0.0,0.0,94,0.00,,---,0.00,VWS V14.01,2013-02-11 11:01:00,
2013-02-11 06:02:00,23.6,22.1,30.13,West,263,0.0,0.0,94,0.00,,---,0.00,VWS V14.01,2013-02-11 11:02:00,
2013-02-11 06:03:00,23.8,22.3,30.13,West,263,0.0,0.0,94,0.00,,---,0.00,VWS V14.01,2013-02-11 11:03:00,
2013-02-11 06:04:00,23.9,22.4,30.13,West,263,0.0,0.0,94,0.00,,---,0.00,VWS V14.01,2013-02-11 11:04:00,
2013-02-11 06:06:00,24.1,22.6,30.13,West,263,0.0,0.0,94,0.00,,---,0.00,VWS V14.01,2013-02-11 11:06:00,
2013-02-11 06:07:00,24.1,22.6,30.13,West,263,0.0,0.0,94,0.00,,---,0.00,VWS V14.01,2013-02-11 11:07:00,
2013-02-11 06:08:00,24.1,22.6,30.13,West,263,0.0,0.0,94,0.00,,---,0.00,VWS V14.01,2013-02-11 11:08:00,
2013-02-11 06:09:00,24.1,22.9,30.13,West,263,0.0,0.0,95,0.00,,---,0.00,VWS V14.01,2013-02-11 11:09:00,
2013-02-11 06:12:00,24.2,23.0,30.13,West,263,0.0,1.0,95,0.00,,---,0.00,VWS V14.01,2013-02-11 11:12:00,
2013-02-11 06:13:00,24.4,23.2,30.13,West,263,0.0,1.0,95,0.00,,---,0.00,VWS V14.01,2013-02-11 11:13:00,
2013-02-11 06:14:00,24.4,23.2,30.13,West,263,0.0,1.0,95,0.00,,---,0.00,VWS V14.01,2013-02-11 11:14:00,
2013-02-11 06:17:00,24.4,23.2,30.12,West,263,0.0,0.0,95,0.00,,---,0.00,VWS V14.01,2013-02-11 11:17:00,
2013-02-11 06:18:00,24.4,22.9,30.12,West,263,0.0,0.0,94,0.00,,---,0.00,VWS V14.01,2013-02-11 11:18:00,
2013-02-11 06:19:00,24.4,22.9,30.12,West,263,0.0,0.0,94,0.00,,---,0.00,VWS V14.01,2013-02-11 11:19:00,
2013-02-11 06:22:00,24.4,22.9,30.12,West,263,0.0,0.0,94,0.00,,---,0.00,VWS V14.01,2013-02-11 11:22:00,
2013-02-11 06:23:00,24.4,22.9,30.12,West,263,0.0,0.0,94,0.00,,---,0.00,VWS V14.01,2013-02-11 11:23:00,
2013-02-11 06:24:00,24.4,22.9,30.12,West,263,0.0,0.0,94,0.00,,---,0.00,VWS V14.01,2013-02-11 11:24:00,
2013-02-11 06:27:00,24.4,22.9,30.12,West,263,0.0,0.0,94,0.00,,---,0.00,VWS V14.01,2013-02-11 11:27:00,
2013-02-11 06:28:00,24.4,22.9,30.12,West,263,0.0,0.0,94,0.00,,---,0.00,VWS V14.01,2013-02-11 11:28:00,
2013-02-11 06:29:00,24.5,23.0,30.12,West,263,0.0,0.0,94,0.00,,---,0.00,VWS V14.01,2013-02-11 11:29:00,
2013-02-11 06:32:00,24.7,23.5,30.12,West,263,0.0,0.0,95,0.00,,---,0.00,VWS V14.01,2013-02-11 11:32:00,
2013-02-11 06:33:00,24.7,23.5,30.12,West,263,0.0,0.0,95,0.00,,---,0.00,VWS V14.01,2013-02-11 11:33:00,
2013-02-11 06:34:00,24.7,23.5,30.12,West,263,0.0,0.0,95,0.00,,---,0.00,VWS V14.01,2013-02-11 11:34:00,
2013-02-11 06:37:00,25.0,23.8,30.12,West,263,0.0,1.0,95,0.00,,---,0.00,VWS V14.01,2013-02-11 11:37:00,
2013-02-11 06:38:00,25.1,23.9,30.12,West,263,0.0,1.0,95,0.00,,---,0.00,VWS V14.01,2013-02-11 11:38:00,
2013-02-11 06:39:00,25.1,23.9,30.12,West,263,0.0,1.0,95,0.00,,---,0.00,VWS V14.01,2013-02-11 11:39:00,
2013-02-11 06:42:00,25.4,24.2,30.12,West,263,0.0,1.0,95,0.00,,---,0.00,VWS V14.01,2013-02-11 11:42:00,
2013-02-11 06:43:00,25.4,24.2,30.12,West,263,0.0,1.0,95,0.00,,---,0.00,VWS V14.01,2013-02-11 11:43:00,
2013-02-11 06:44:00,25.6,24.4,30.12,West,263,0.0,1.0,95,0.00,,---,0.00,VWS V14.01,2013-02-11 11:44:00,
2013-02-11 06:48:00,25.6,24.4,30.10,West,263,0.0,0.0,95,0.00,,---,0.00,VWS V14.01,2013-02-11 11:48:00,
2013-02-11 06:50:00,25.6,24.4,30.10,West,263,0.0,0.0,95,0.00,,---,0.00,VWS V14.01,2013-02-11 11:50:00,
2013-02-11 06:53:00,25.6,24.4,30.10,West,263,0.0,0.0,95,0.00,,---,0.00,VWS V14.01,2013-02-11 11:53:00,
2013-02-11 06:54:00,25.6,24.4,30.10,West,263,0.0,0.0,95,0.00,,---,0.00,VWS V14.01,2013-02-11 11:54:00,
2013-02-11 06:55:00,25.7,24.5,30.10,West,263,0.0,0.0,95,0.00,,---,0.00,VWS V14.01,2013-02-11 11:55:00,
2013-02-11 06:58:00,25.7,24.5,30.10,West,263,0.0,0.0,95,0.00,,---,0.00,VWS V14.01,2013-02-11 11:58:00,
2013-02-11 06:59:00,25.7,24.5,30.10,West,263,0.0,0.0,95,0.00,,---,0.00,VWS V14.01,2013-02-11 11:59:00,
2013-02-11 07:00:00,25.7,24.5,30.10,West,263,0.0,0.0,95,0.00,,---,0.00,VWS V14.01,2013-02-11 12:00:00,
2013-02-11 07:03:00,25.7,24.5,30.10,West,263,0.0,0.0,95,0.00,,---,0.00,VWS V14.01,2013-02-11 12:03:00,
2013-02-11 07:04:00,25.7,24.5,30.10,West,263,0.0,0.0,95,0.00,,---,0.00,VWS V14.01,2013-02-11 12:04:00,
2013-02-11 07:05:00,25.7,24.5,30.10,West,263,0.0,0.0,95,0.00,,---,0.00,VWS V14.01,2013-02-11 12:05:00,
2013-02-11 07:08:00,25.8,24.6,30.10,West,263,0.0,0.0,95,0.00,,---,0.00,VWS V14.01,2013-02-11 12:08:00,
2013-02-11 07:09:00,25.8,24.6,30.10,West,263,0.0,0.0,95,0.00,,---,0.00,VWS V14.01,2013-02-11 12:09:00,
2013-02-11 07:10:00,25.8,24.6,30.10,West,263,0.0,0.0,95,0.00,,---,0.00,VWS V14.01,2013-02-11 12:10:00,
2013-02-11 07:13:00,25.8,24.8,30.10,West,263,0.0,0.0,96,0.00,,---,0.00,VWS V14.01,2013-02-11 12:13:00,
2013-02-11 07:14:00,26.0,25.0,30.10,West,263,0.0,0.0,96,0.00,,---,0.00,VWS V14.01,2013-02-11 12:14:00,
2013-02-11 07:15:00,26.0,25.0,30.09,West,263,0.0,0.0,96,0.00,,---,0.00,VWS V14.01,2013-02-11 12:15:00,
2013-02-11 07:18:00,26.0,25.0,30.09,West,263,0.0,0.0,96,0.00,,---,0.00,VWS V14.01,2013-02-11 12:18:00,
2013-02-11 07:19:00,26.0,25.0,30.09,West,263,0.0,0.0,96,0.00,,---,0.00,VWS V14.01,2013-02-11 12:19:00,
2013-02-11 07:20:00,26.1,25.1,30.09,West,263,0.0,0.0,96,0.00,,---,0.00,VWS V14.01,2013-02-11 12:20:00,
2013-02-11 07:23:00,26.3,25.6,30.09,West,263,0.0,0.0,97,0.00,,---,0.00,VWS V14.01,2013-02-11 12:23:00,
2013-02-11 07:24:00,26.3,25.6,30.09,West,263,0.0,0.0,97,0.00,,---,0.00,VWS V14.01,2013-02-11 12:24:00,
2013-02-11 07:26:00,26.4,25.7,30.09,West,263,0.0,0.0,97,0.00,,---,0.00,VWS V14.01,2013-02-11 12:26:00,
2013-02-11 07:28:00,26.7,26.2,30.09,West,263,1.0,1.0,98,0.00,,---,0.00,VWS V14.01,2013-02-11 12:28:00,
2013-02-11 07:29:00,26.9,26.4,30.09,West,263,0.0,1.0,98,0.00,,---,0.00,VWS V14.01,2013-02-11 12:29:00,
2013-02-11 07:31:00,26.9,26.4,30.07,West,263,0.0,0.0,98,0.00,,---,0.00,VWS V14.01,2013-02-11 12:31:00,
2013-02-11 07:33:00,26.9,26.4,30.07,West,263,0.0,1.0,98,0.00,,---,0.00,VWS V14.01,2013-02-11 12:33:00,
2013-02-11 07:34:00,26.9,26.4,30.07,West,263,0.0,1.0,98,0.00,,---,0.00,VWS V14.01,2013-02-11 12:34:00,
2013-02-11 07:36:00,26.9,26.4,30.07,West,263,0.0,1.0,98,0.00,,---,0.00,VWS V14.01,2013-02-11 12:36:00,
2013-02-11 07:38:00,26.9,26.4,30.07,West,263,0.0,1.0,98,0.00,,---,0.00,VWS V14.01,2013-02-11 12:38:00,
2013-02-11 07:39:00,26.9,26.7,30.07,West,263,0.0,1.0,99,0.00,,---,0.00,VWS V14.01,2013-02-11 12:39:00,
2013-02-11 07:41:00,27.0,26.8,30.07,West,263,0.0,1.0,99,0.00,,---,0.00,VWS V14.01,2013-02-11 12:41:00,
2013-02-11 07:43:00,27.0,26.8,30.07,West,263,0.0,1.0,99,0.00,,---,0.00,VWS V14.01,2013-02-11 12:43:00,
2013-02-11 07:44:00,27.0,26.8,30.07,West,263,0.0,1.0,99,0.00,,---,0.00,VWS V14.01,2013-02-11 12:44:00,
2013-02-11 07:45:00,27.2,27.0,30.08,West,263,0.0,1.0,99,0.00,,---,0.00,VWS V14.01,2013-02-11 12:45:00,
2013-02-11 07:46:00,27.3,27.1,30.08,West,263,0.0,2.0,99,0.00,,---,0.00,VWS V14.01,2013-02-11 12:46:00,
2013-02-11 07:48:00,27.5,27.3,30.08,West,263,0.0,2.0,99,0.00,,---,0.00,VWS V14.01,2013-02-11 12:48:00,
2013-02-11 07:49:00,27.5,27.3,30.08,West,263,0.0,2.0,99,0.00,,---,0.00,VWS V14.01,2013-02-11 12:49:00,
2013-02-11 07:50:00,27.5,27.5,30.08,West,263,0.0,2.0,100,0.00,,---,0.00,VWS V14.01,2013-02-11 12:50:00,
2013-02-11 07:51:00,27.5,27.5,30.08,West,263,0.0,2.0,100,0.00,,---,0.00,VWS V14.01,2013-02-11 12:51:00,
2013-02-11 07:54:00,27.6,27.6,30.08,West,263,0.0,2.0,100,0.00,,---,0.00,VWS V14.01,2013-02-11 12:54:00,
2013-02-11 07:55:00,27.6,27.6,30.08,West,263,0.0,2.0,100,0.00,,---,0.00,VWS V14.01,2013-02-11 12:55:00,
2013-02-11 07:56:00,27.8,27.8,30.08,West,263,0.0,2.0,100,0.00,,---,0.00,VWS V14.01,2013-02-11 12:56:00,
2013-02-11 07:59:00,27.8,27.8,30.08,West,263,0.0,2.0,100,0.00,,---,0.00,VWS V14.01,2013-02-11 12:59:00,
2013-02-11 08:00:00,27.9,27.9,30.06,West,263,0.0,2.0,100,0.00,,---,0.00,VWS V14.01,2013-02-11 13:00:00,
2013-02-11 08:01:00,27.9,27.9,30.06,West,263,0.0,0.0,100,0.00,,---,0.00,VWS V14.01,2013-02-11 13:01:00,
2013-02-11 08:04:00,28.2,28.2,30.06,West,263,0.0,0.0,100,0.00,,---,0.00,VWS V14.01,2013-02-11 13:04:00,
2013-02-11 08:05:00,28.4,28.4,30.06,West,263,0.0,0.0,100,0.00,,---,0.00,VWS V14.01,2013-02-11 13:05:00,
2013-02-11 08:06:00,28.4,28.4,30.06,West,263,0.0,0.0,100,0.00,,---,0.00,VWS V14.01,2013-02-11 13:06:00,
2013-02-11 08:09:00,28.5,28.5,30.06,West,263,0.0,0.0,100,0.00,,---,0.00,VWS V14.01,2013-02-11 13:09:00,
2013-02-11 08:10:00,28.7,28.7,30.06,West,263,0.0,0.0,100,0.00,,---,0.00,VWS V14.01,2013-02-11 13:10:00,
2013-02-11 08:11:00,28.8,28.8,30.06,West,263,0.0,0.0,100,0.00,,---,0.00,VWS V14.01,2013-02-11 13:11:00,
2013-02-11 08:14:00,29.0,29.0,30.06,West,263,0.0,0.0,100,0.00,,---,0.00,VWS V14.01,2013-02-11 13:14:00,
2013-02-11 08:15:00,29.1,29.1,30.05,West,263,0.0,0.0,100,0.00,,---,0.00,VWS V14.01,2013-02-11 13:15:00,
2013-02-11 08:16:00,29.1,29.1,30.05,West,263,0.0,0.0,100,0.00,,---,0.00,VWS V14.01,2013-02-11 13:16:00,
2013-02-11 08:19:00,29.3,29.3,30.05,West,263,2.0,2.0,100,0.00,,---,0.00,VWS V14.01,2013-02-11 13:19:00,
2013-02-11 08:20:00,29.4,29.4,30.05,West,263,0.0,2.0,100,0.00,,---,0.00,VWS V14.01,2013-02-11 13:20:00,
2013-02-11 08:21:00,29.5,29.5,30.05,West,263,0.0,2.0,100,0.00,,---,0.00,VWS V14.01,2013-02-11 13:21:00,
2013-02-11 08:24:00,29.8,29.8,30.05,West,263,0.0,2.0,100,0.00,,---,0.00,VWS V14.01,2013-02-11 13:24:00,
2013-02-11 08:25:00,29.8,29.8,30.05,West,263,0.0,2.0,100,0.00,,---,0.00,VWS V14.01,2013-02-11 13:25:00,
2013-02-11 08:26:00,30.0,30.0,30.05,West,263,0.0,2.0,100,0.00,,---,0.00,VWS V14.01,2013-02-11 13:26:00,
2013-02-11 08:27:00,30.1,30.1,30.05,West,263,0.0,2.0,100,0.00,,---,0.00,VWS V14.01,2013-02-11 13:27:00,
2013-02-11 08:29:00,30.3,30.3,30.05,West,263,0.0,2.0,100,0.00,,---,0.00,VWS V14.01,2013-02-11 13:29:00,
2013-02-11 08:30:00,30.4,30.4,30.03,West,263,0.0,2.0,100,0.00,,---,0.00,VWS V14.01,2013-02-11 13:30:00,
2013-02-11 08:31:00,30.4,30.4,30.03,West,263,0.0,0.0,100,0.00,,---,0.00,VWS V14.01,2013-02-11 13:31:00,
2013-02-11 08:32:00,30.6,30.6,30.03,West,263,0.0,0.0,100,0.00,,---,0.00,VWS V14.01,2013-02-11 13:32:00,
2013-02-11 08:34:00,31.0,31.0,30.03,West,263,0.0,0.0,100,0.00,,---,0.00,VWS V14.01,2013-02-11 13:34:00,
2013-02-11 08:35:00,31.3,31.3,30.03,West,263,0.0,0.0,100,0.00,,---,0.00,VWS V14.01,2013-02-11 13:35:00,
2013-02-11 08:36:00,31.5,31.5,30.03,West,263,0.0,0.0,100,0.00,,---,0.00,VWS V14.01,2013-02-11 13:36:00,
2013-02-11 08:37:00,31.6,31.6,30.03,West,263,0.0,0.0,100,0.00,,---,0.00,VWS V14.01,2013-02-11 13:37:00,
2013-02-11 08:39:00,31.9,31.9,30.03,SSW,195,0.0,2.0,100,0.00,,---,0.00,VWS V14.01,2013-02-11 13:39:00,
2013-02-11 08:40:00,31.9,31.9,30.03,SSW,195,0.0,2.0,100,0.00,,---,0.00,VWS V14.01,2013-02-11 13:40:00,
2013-02-11 08:42:00,32.1,32.1,30.03,SSW,195,0.0,2.0,100,0.00,,---,0.00,VWS V14.01,2013-02-11 13:42:00,
2013-02-11 08:44:00,32.7,32.7,30.03,SSW,195,1.0,2.0,100,0.00,,---,0.00,VWS V14.01,2013-02-11 13:44:00,
2013-02-11 08:46:00,33.2,33.2,30.02,SSW,195,0.0,0.0,100,0.00,,---,0.00,VWS V14.01,2013-02-11 13:46:00,
2013-02-11 08:47:00,33.7,33.7,30.02,SSW,195,1.0,1.0,100,0.00,,---,0.00,VWS V14.01,2013-02-11 13:47:00,
2013-02-11 08:49:00,34.3,34.3,30.02,South,181,1.0,3.0,100,0.00,,---,0.00,VWS V14.01,2013-02-11 13:49:00,
2013-02-11 08:51:00,34.6,34.6,30.02,South,181,0.0,3.0,100,0.00,,---,0.00,VWS V14.01,2013-02-11 13:51:00,
2013-02-11 08:52:00,34.9,34.9,30.02,South,181,0.0,3.0,100,0.00,,---,0.00,VWS V14.01,2013-02-11 13:52:00,
2013-02-11 08:53:00,34.9,34.9,30.02,South,181,0.0,3.0,100,0.00,,---,0.00,VWS V14.01,2013-02-11 13:53:00,
2013-02-11 08:55:00,35.0,35.0,30.02,South,181,0.0,3.0,100,0.00,,---,0.00,VWS V14.01,2013-02-11 13:55:00,
2013-02-11 08:56:00,35.2,35.2,30.02,South,181,0.0,3.0,100,0.00,,---,0.00,VWS V14.01,2013-02-11 13:56:00,
2013-02-11 08:57:00,35.3,35.3,30.02,ESE,109,0.0,3.0,100,0.00,,---,0.00,VWS V14.01,2013-02-11 13:57:00,
2013-02-11 08:58:00,35.3,35.3,30.02,ESE,109,0.0,3.0,100,0.00,,---,0.00,VWS V14.01,2013-02-11 13:58:00,
2013-02-11 09:00:00,35.8,35.8,30.02,South,171,1.0,3.0,100,0.00,,---,0.00,VWS V14.01,2013-02-11 14:00:00,
2013-02-11 09:01:00,36.0,36.0,30.00,SSE,154,7.0,7.0,100,0.00,,---,0.00,VWS V14.01,2013-02-11 14:01:00,
2013-02-11 09:02:00,36.5,36.5,30.00,SSE,155,0.0,7.0,100,0.00,,---,0.00,VWS V14.01,2013-02-11 14:02:00,
2013-02-11 09:03:00,36.5,36.5,30.00,SSE,155,0.0,7.0,100,0.00,,---,0.00,VWS V14.01,2013-02-11 14:03:00,
2013-02-11 09:05:00,36.6,36.6,30.00,ESE,104,3.0,7.0,100,0.00,,---,0.00,VWS V14.01,2013-02-11 14:05:00,
2013-02-11 09:06:00,36.8,36.8,30.00,SE,127,0.0,7.0,100,0.00,,---,0.00,VWS V14.01,2013-02-11 14:06:00,
2013-02-11 09:07:00,36.8,36.8,30.00,SSE,158,2.0,7.0,100,0.00,,---,0.00,VWS V14.01,2013-02-11 14:07:00,
2013-02-11 09:08:00,36.9,36.9,30.00,South,176,2.0,7.0,100,0.00,,---,0.00,VWS V14.01,2013-02-11 14:08:00,
2013-02-11 09:10:00,37.2,37.2,30.00,South,179,0.0,7.0,100,0.00,,---,0.00,VWS V14.01,2013-02-11 14:10:00,
2013-02-11 09:11:00,37.2,37.2,30.00,South,179,2.0,7.0,100,0.00,,---,0.00,VWS V14.01,2013-02-11 14:11:00,
2013-02-11 09:13:00,37.2,37.2,30.00,South,179,0.0,7.0,100,0.00,,---,0.00,VWS V14.01,2013-02-11 14:13:00,
2013-02-11 09:15:00,37.2,37.2,29.99,South,179,0.0,7.0,100,0.00,,---,0.00,VWS V14.01,2013-02-11 14:15:00,
2013-02-11 09:16:00,37.2,37.2,29.99,South,179,0.0,0.0,100,0.00,,---,0.00,VWS V14.01,2013-02-11 14:16:00,
2013-02-11 09:18:00,37.3,37.3,29.99,South,179,0.0,2.0,100,0.00,,---,0.00,VWS V14.01,2013-02-11 14:18:00,
2013-02-11 09:20:00,37.3,37.3,29.99,South,169,0.0,2.0,100,0.00,,---,0.00,VWS V14.01,2013-02-11 14:20:00,
2013-02-11 09:21:00,37.5,37.5,29.99,South,169,0.0,2.0,100,0.00,,---,0.00,VWS V14.01,2013-02-11 14:21:00,
2013-02-11 09:23:00,37.6,37.6,29.99,SSE,168,2.0,2.0,100,0.00,,---,0.00,VWS V14.01,2013-02-11 14:23:00,
2013-02-11 09:25:00,38.2,38.2,29.99,SSE,155,2.0,7.0,100,0.00,,---,0.00,VWS V14.01,2013-02-11 14:25:00,
2013-02-11 09:26:00,38.5,38.5,29.99,SSE,155,1.0,7.0,100,0.00,,---,0.00,VWS V14.01,2013-02-11 14:26:00,
2013-02-11 09:28:00,38.8,38.8,29.99,SSE,150,1.0,7.0,100,0.00,,---,0.00,VWS V14.01,2013-02-11 14:28:00,
2013-02-11 09:30:00,39.1,39.1,29.98,SSE,154,0.0,7.0,100,0.00,,---,0.00,VWS V14.01,2013-02-11 14:30:00,
2013-02-11 09:31:00,39.1,39.1,29.98,ESE,123,5.0,6.0,100,0.00,,---,0.00,VWS V14.01,2013-02-11 14:31:00,
2013-02-11 09:33:00,39.2,39.2,29.98,SE,126,0.0,6.0,100,0.00,,---,0.00,VWS V14.01,2013-02-11 14:33:00,
2013-02-11 09:36:00,39.3,39.3,29.98,SSE,164,1.0,6.0,100,0.00,,---,0.00,VWS V14.01,2013-02-11 14:36:00,
2013-02-11 09:37:00,39.3,39.3,29.98,SSE,164,2.0,6.0,100,0.00,,---,0.00,VWS V14.01,2013-02-11 14:37:00,
2013-02-11 09:38:00,39.5,39.5,29.98,SSE,164,0.0,6.0,100,0.00,,---,0.00,VWS V14.01,2013-02-11 14:38:00,
2013-02-11 09:41:00,39.6,39.6,29.98,SSE,151,0.0,6.0,100,0.00,,---,0.00,VWS V14.01,2013-02-11 14:41:00,
2013-02-11 09:42:00,39.6,39.6,29.98,SSE,151,3.0,6.0,100,0.00,,---,0.00,VWS V14.01,2013-02-11 14:42:00,
2013-02-11 09:43:00,39.6,39.6,29.98,SSE,147,0.0,6.0,100,0.00,,---,0.00,VWS V14.01,2013-02-11 14:43:00,
2013-02-11 09:46:00,39.8,39.8,29.96,SSE,165,3.0,3.0,100,0.00,,---,0.00,VWS V14.01,2013-02-11 14:46:00,
2013-02-11 09:47:00,39.8,39.8,29.96,South,176,2.0,3.0,100,0.00,,---,0.00,VWS V14.01,2013-02-11 14:47:00,
2013-02-11 09:48:00,39.8,39.8,29.96,SSE,167,0.0,3.0,100,0.00,,---,0.00,VWS V14.01,2013-02-11 14:48:00,
2013-02-11 09:49:00,39.8,39.8,29.96,SSE,167,0.0,3.0,100,0.00,,---,0.00,VWS V14.01,2013-02-11 14:49:00,
2013-02-11 09:51:00,39.9,39.9,29.96,SSE,167,0.0,3.0,100,0.00,,---,0.00,VWS V14.01,2013-02-11 14:51:00,
2013-02-11 09:52:00,39.9,39.9,29.96,SSE,167,0.0,3.0,100,0.00,,---,0.00,VWS V14.01,2013-02-11 14:52:00,
2013-02-11 09:53:00,39.8,39.8,29.96,SSE,167,0.0,3.0,100,0.01,,---,0.01,VWS V14.01,2013-02-11 14:53:00,
2013-02-11 09:54:00,39.8,39.8,29.96,SSE,167,0.0,3.0,100,0.01,,---,0.01,VWS V14.01,2013-02-11 14:54:00,
2013-02-11 09:56:00,39.9,39.9,29.96,SSE,158,2.0,6.0,100,0.01,,---,0.01,VWS V14.01,2013-02-11 14:56:00,
2013-02-11 09:57:00,39.9,39.9,29.96,SSE,158,1.0,6.0,100,0.01,,---,0.01,VWS V14.01,2013-02-11 14:57:00,
2013-02-11 09:59:00,39.9,39.9,29.96,SSE,157,2.0,6.0,100,0.01,,---,0.01,VWS V14.01,2013-02-11 14:59:00,
2013-02-11 10:01:00,40.1,40.1,29.95,SSW,199,1.0,2.0,100,0.01,,---,0.01,VWS V14.01,2013-02-11 15:01:00,
2013-02-11 10:02:00,40.1,40.1,29.95,SSW,199,2.0,2.0,100,0.01,,---,0.01,VWS V14.01,2013-02-11 15:02:00,
2013-02-11 10:04:00,40.2,40.2,29.95,SSE,157,5.0,5.0,100,0.01,,---,0.01,VWS V14.01,2013-02-11 15:04:00,
2013-02-11 10:07:00,40.3,40.3,29.95,SE,144,1.0,6.0,100,0.01,,---,0.01,VWS V14.01,2013-02-11 15:07:00,
2013-02-11 10:09:00,40.3,40.3,29.95,SE,130,3.0,6.0,100,0.01,,---,0.01,VWS V14.01,2013-02-11 15:09:00,
2013-02-11 10:12:00,40.6,40.6,29.95,SSE,154,1.0,10.0,100,0.01,,---,0.01,VWS V14.01,2013-02-11 15:12:00,
2013-02-11 10:14:00,40.6,40.6,29.95,SSE,152,1.0,10.0,100,0.01,,---,0.01,VWS V14.01,2013-02-11 15:14:00,
2013-02-11 10:15:00,40.6,40.6,29.95,South,176,3.0,10.0,100,0.01,,---,0.01,VWS V14.01,2013-02-11 15:15:00,
2013-02-11 10:17:00,40.6,40.6,29.93,SSE,147,5.0,6.0,100,0.01,,---,0.01,VWS V14.01,2013-02-11 15:17:00,
2013-02-11 10:19:00,40.6,40.6,29.93,SSE,157,2.0,6.0,100,0.01,,---,0.01,VWS V14.01,2013-02-11 15:19:00,
2013-02-11 10:20:00,40.8,40.8,29.93,SSE,158,4.0,6.0,100,0.01,,---,0.01,VWS V14.01,2013-02-11 15:20:00,
2013-02-11 10:22:00,40.8,40.8,29.93,SSE,164,6.0,7.0,100,0.01,,---,0.01,VWS V14.01,2013-02-11 15:22:00,
2013-02-11 10:24:00,41.1,41.1,29.93,SSE,165,1.0,7.0,100,0.01,,---,0.01,VWS V14.01,2013-02-11 15:24:00,
2013-02-11 10:25:00,41.1,41.1,29.93,SSE,164,1.0,7.0,100,0.01,,---,0.01,VWS V14.01,2013-02-11 15:25:00,
2013-02-11 10:27:00,41.1,41.1,29.93,SE,124,0.0,8.0,100,0.01,,---,0.01,VWS V14.01,2013-02-11 15:27:00,
2013-02-11 10:29:00,41.1,41.1,29.93,SE,141,5.0,8.0,100,0.01,,---,0.01,VWS V14.01,2013-02-11 15:29:00,
2013-02-11 10:30:00,41.2,41.2,29.91,SE,136,3.0,8.0,100,0.01,,---,0.01,VWS V14.01,2013-02-11 15:30:00,
2013-02-11 10:32:00,41.2,41.2,29.91,SE,133,6.0,10.0,100,0.01,,---,0.01,VWS V14.01,2013-02-11 15:32:00,
2013-02-11 10:34:00,41.3,41.3,29.91,South,172,2.0,10.0,100,0.01,,---,0.01,VWS V14.01,2013-02-11 15:34:00,
2013-02-11 10:35:00,41.5,41.5,29.91,SSE,152,7.0,10.0,100,0.01,,---,0.01,VWS V14.01,2013-02-11 15:35:00,
2013-02-11 10:37:00,41.5,41.5,29.91,SSE,164,3.0,10.0,100,0.01,,---,0.01,VWS V14.01,2013-02-11 15:37:00,
2013-02-11 10:39:00,41.5,41.5,29.91,SSE,160,11.0,11.0,100,0.01,,---,0.01,VWS V14.01,2013-02-11 15:39:00,
2013-02-11 10:40:00,41.6,41.6,29.91,SSE,158,2.0,11.0,100,0.01,,---,0.01,VWS V14.01,2013-02-11 15:40:00,
2013-02-11 10:43:00,41.6,41.6,29.91,ESE,107,10.0,11.0,100,0.01,,---,0.01,VWS V14.01,2013-02-11 15:43:00,
2013-02-11 10:44:00,41.6,41.6,29.91,ESE,121,4.0,11.0,100,0.01,,---,0.01,VWS V14.01,2013-02-11 15:44:00,
2013-02-11 10:45:00,41.6,41.6,29.90,SE,145,2.0,11.0,100,0.01,,---,0.01,VWS V14.01,2013-02-11 15:45:00,
2013-02-11 10:48:00,41.6,41.6,29.90,SSE,150,2.0,11.0,100,0.01,,---,0.01,VWS V14.01,2013-02-11 15:48:00,
2013-02-11 10:49:00,41.6,41.6,29.90,South,184,5.0,11.0,100,0.01,,---,0.01,VWS V14.01,2013-02-11 15:49:00,
2013-02-11 10:50:00,41.6,41.6,29.90,SSE,152,7.0,11.0,100,0.01,,---,0.01,VWS V14.01,2013-02-11 15:50:00,
2013-02-11 10:53:00,41.8,41.8,29.90,SSE,147,6.0,11.0,100,0.02,,---,0.02,VWS V14.01,2013-02-11 15:53:00,
2013-02-11 10:55:00,41.9,41.9,29.90,South,174,5.0,11.0,100,0.02,,---,0.02,VWS V14.01,2013-02-11 15:55:00,
2013-02-11 10:56:00,41.9,41.9,29.90,SSE,162,4.0,11.0,100,0.03,,---,0.03,VWS V14.01,2013-02-11 15:56:00,
2013-02-11 10:58:00,42.1,42.1,29.90,SE,141,4.0,11.0,100,0.03,,---,0.03,VWS V14.01,2013-02-11 15:58:00,
2013-02-11 11:00:00,42.1,42.1,29.90,South,172,3.0,11.0,100,0.04,,---,0.04,VWS V14.01,2013-02-11 16:00:00,
2013-02-11 11:01:00,42.1,42.1,29.88,SSE,157,3.0,8.0,100,0.03,,---,0.04,VWS V14.01,2013-02-11 16:01:00,
2013-02-11 11:03:00,42.1,42.1,29.88,SSE,168,1.0,8.0,100,0.04,,---,0.05,VWS V14.01,2013-02-11 16:03:00,
2013-02-11 11:05:00,42.2,42.2,29.88,SE,144,7.0,8.0,100,0.05,,---,0.06,VWS V14.01,2013-02-11 16:05:00,
2013-02-11 11:07:00,42.3,42.3,29.88,SE,137,5.0,8.0,100,0.05,,---,0.06,VWS V14.01,2013-02-11 16:07:00,
2013-02-11 11:08:00,42.5,42.5,29.88,SSE,157,2.0,9.0,100,0.06,,---,0.07,VWS V14.01,2013-02-11 16:08:00,
2013-02-11 11:10:00,42.5,42.5,29.88,South,171,1.0,9.0,100,0.07,,---,0.08,VWS V14.01,2013-02-11 16:10:00,
2013-02-11 11:12:00,42.6,42.6,29.88,SSE,152,5.0,10.0,100,0.08,,---,0.09,VWS V14.01,2013-02-11 16:12:00,
2013-02-11 11:13:00,42.8,42.8,29.88,SE,128,10.0,10.0,100,0.09,,---,0.10,VWS V14.01,2013-02-11 16:13:00,
2013-02-11 11:15:00,42.8,42.8,29.86,SSE,167,4.0,10.0,100,0.10,,---,0.11,VWS V14.01,2013-02-11 16:15:00,
2013-02-11 11:17:00,42.6,42.6,29.86,SSE,152,8.0,9.0,100,0.11,,---,0.12,VWS V14.01,2013-02-11 16:17:00,
2013-02-11 11:18:00,42.8,42.8,29.86,SSE,161,2.0,11.0,100,0.12,,---,0.13,VWS V14.01,2013-02-11 16:18:00,
2013-02-11 11:19:00,42.8,42.8,29.86,SSE,167,7.0,11.0,100,0.12,,---,0.13,VWS V14.01,2013-02-11 16:19:00,
2013-02-11 11:20:00,42.9,42.9,29.86,SSE,157,8.0,11.0,100,0.13,,---,0.14,VWS V14.01,2013-02-11 16:20:00,
2013-02-11 11:22:00,42.8,42.8,29.86,SE,126,3.0,11.0,100,0.14,,---,0.15,VWS V14.01,2013-02-11 16:22:00,
2013-02-11 11:23:00,42.8,42.8,29.86,SSE,160,5.0,11.0,100,0.15,,---,0.16,VWS V14.01,2013-02-11 16:23:00,
2013-02-11 11:24:00,42.8,42.8,29.86,SSE,160,5.0,11.0,100,0.15,,---,0.16,VWS V14.01,2013-02-11 16:24:00,
2013-02-11 11:25:00,42.9,42.9,29.86,SE,127,6.0,11.0,100,0.15,,---,0.16,VWS V14.01,2013-02-11 16:25:00,
2013-02-11 11:27:00,43.1,43.1,29.86,SSW,202,11.0,13.0,100,0.16,,---,0.17,VWS V14.01,2013-02-11 16:27:00,
2013-02-11 11:28:00,43.2,43.2,29.86,SSE,152,8.0,13.0,100,0.17,,---,0.18,VWS V14.01,2013-02-11 16:28:00,
2013-02-11 11:29:00,43.2,43.2,29.86,SSE,167,7.0,13.0,100,0.17,,---,0.18,VWS V14.01,2013-02-11 16:29:00,
2013-02-11 11:30:00,43.3,43.3,29.84,SSE,158,6.0,13.0,100,0.18,,---,0.19,VWS V14.01,2013-02-11 16:30:00,
2013-02-11 11:32:00,43.3,43.3,29.84,SE,143,4.0,12.0,100,0.19,,---,0.20,VWS V14.01,2013-02-11 16:32:00,
2013-02-11 11:34:00,43.3,43.3,29.84,SSE,157,7.0,12.0,100,0.20,,---,0.21,VWS V14.01,2013-02-11 16:34:00,
2013-02-11 11:35:00,43.3,43.3,29.84,SSE,164,10.0,12.0,100,0.21,,---,0.22,VWS V14.01,2013-02-11 16:35:00,
2013-02-11 11:37:00,43.6,43.6,29.84,South,172,13.0,17.0,100,0.23,,---,0.24,VWS V14.01,2013-02-11 16:37:00,
2013-02-11 11:39:00,43.6,43.6,29.84,SSE,151,7.0,17.0,100,0.23,,---,0.24,VWS V14.01,2013-02-11 16:39:00,
2013-02-11 11:40:00,43.5,43.5,29.84,South,181,5.0,17.0,100,0.24,,---,0.25,VWS V14.01,2013-02-11 16:40:00,
2013-02-11 11:42:00,43.5,43.5,29.84,SSE,148,10.0,17.0,100,0.26,,---,0.27,VWS V14.01,2013-02-11 16:42:00,
2013-02-11 11:44:00,43.8,43.8,29.84,SSE,155,16.0,19.0,100,0.27,,---,0.28,VWS V14.01,2013-02-11 16:44:00,
2013-02-11 11:45:00,43.9,43.9,29.83,SSE,154,13.0,19.0,100,0.28,,---,0.29,VWS V14.01,2013-02-11 16:45:00,
2013-02-11 11:47:00,44.1,44.1,29.83,SSE,161,3.0,10.0,100,0.29,,---,0.30,VWS V14.01,2013-02-11 16:47:00,
2013-02-11 11:49:00,44.1,44.1,29.83,South,191,12.0,12.0,100,0.30,,---,0.31,VWS V14.01,2013-02-11 16:49:00,
2013-02-11 11:50:00,44.1,44.1,29.83,SSE,154,7.0,13.0,100,0.31,,---,0.32,VWS V14.01,2013-02-11 16:50:00,
2013-02-11 11:53:00,44.1,44.1,29.83,SSE,157,12.0,13.0,100,0.32,,---,0.33,VWS V14.01,2013-02-11 16:53:00,
2013-02-11 11:54:00,44.1,44.1,29.83,South,184,7.0,13.0,100,0.33,,---,0.34,VWS V14.01,2013-02-11 16:54:00,
2013-02-11 11:56:00,44.1,44.1,29.83,SE,143,5.0,13.0,100,0.34,,---,0.35,VWS V14.01,2013-02-11 16:56:00,
2013-02-11 11:58:00,44.2,44.2,29.83,SE,137,6.0,13.0,100,0.35,,---,0.36,VWS V14.01,2013-02-11 16:58:00,
2013-02-11 11:59:00,44.2,44.2,29.83,SW,229,7.0,14.0,100,0.35,,---,0.36,VWS V14.01,2013-02-11 16:59:00,
2013-02-11 12:01:00,44.2,44.2,29.83,SSE,167,12.0,13.0,100,0.33,,---,0.37,VWS V14.01,2013-02-11 17:01:00,
2013-02-11 12:03:00,44.5,44.5,29.83,SSW,200,6.0,14.0,100,0.34,,---,0.38,VWS V14.01,2013-02-11 17:03:00,
2013-02-11 12:04:00,44.6,44.6,29.83,SSE,157,7.0,14.0,100,0.34,,---,0.39,VWS V14.01,2013-02-11 17:04:00,
2013-02-11 12:06:00,44.6,44.6,29.83,SSW,196,7.0,14.0,100,0.35,,---,0.39,VWS V14.01,2013-02-11 17:06:00,
2013-02-11 12:08:00,44.8,44.8,29.83,SSE,160,10.0,14.0,100,0.37,,---,0.41,VWS V14.01,2013-02-11 17:08:00,
2013-02-11 12:09:00,44.8,44.8,29.83,SSW,202,6.0,14.0,100,0.37,,---,0.41,VWS V14.01,2013-02-11 17:09:00,
2013-02-11 12:11:00,44.9,44.9,29.83,SSE,167,7.0,14.0,100,0.38,,---,0.42,VWS V14.01,2013-02-11 17:11:00,
2013-02-11 12:13:00,45.1,45.1,29.83,SSW,200,13.0,17.0,100,0.40,,---,0.44,VWS V14.01,2013-02-11 17:13:00,
2013-02-11 12:14:00,45.2,45.2,29.83,South,186,5.0,17.0,100,0.40,,---,0.44,VWS V14.01,2013-02-11 17:14:00,
2013-02-11 12:16:00,45.1,45.1,29.81,SSE,151,8.0,10.0,100,0.34,,---,0.45,VWS V14.01,2013-02-11 17:16:00,
2013-02-11 12:19:00,45.1,45.1,29.81,SW,232,8.0,12.0,100,0.35,,---,0.46,VWS V14.01,2013-02-11 17:19:00,
2013-02-11 12:20:00,45.1,45.1,29.81,SSW,203,4.0,12.0,100,0.36,,---,0.47,VWS V14.01,2013-02-11 17:20:00,
2013-02-11 12:21:00,45.1,45.1,29.81,South,172,6.0,12.0,100,0.36,,---,0.47,VWS V14.01,2013-02-11 17:21:00,
2013-02-11 12:24:00,45.1,45.1,29.81,SSW,192,5.0,12.0,100,0.37,,---,0.48,VWS V14.01,2013-02-11 17:24:00,
2013-02-11 12:25:00,45.2,45.2,29.81,SSW,208,6.0,12.0,100,0.38,,---,0.49,VWS V14.01,2013-02-11 17:25:00,
2013-02-11 12:26:00,45.4,45.4,29.81,SSW,196,3.0,12.0,100,0.38,,---,0.49,VWS V14.01,2013-02-11 17:26:00,
2013-02-11 12:29:00,45.2,45.2,29.81,SE,144,7.0,12.0,100,0.39,,---,0.50,VWS V14.01,2013-02-11 17:29:00,
2013-02-11 12:30:00,45.2,45.2,29.80,SW,227,2.0,12.0,100,0.39,,---,0.50,VWS V14.01,2013-02-11 17:30:00,
2013-02-11 12:31:00,45.2,45.2,29.80,WSW,247,6.0,9.0,100,0.31,,---,0.50,VWS V14.01,2013-02-11 17:31:00,
2013-02-11 12:34:00,45.2,45.2,29.80,WSW,247,3.0,9.0,100,0.32,,---,0.51,VWS V14.01,2013-02-11 17:34:00,
2013-02-11 12:35:00,45.4,45.4,29.80,WSW,239,3.0,9.0,100,0.32,,---,0.51,VWS V14.01,2013-02-11 17:35:00,
2013-02-11 12:37:00,45.2,45.2,29.80,West,265,1.0,9.0,100,0.32,,---,0.51,VWS V14.01,2013-02-11 17:37:00,
2013-02-11 12:39:00,45.4,45.4,29.80,SW,227,5.0,9.0,100,0.33,,---,0.52,VWS V14.01,2013-02-11 17:39:00,
2013-02-11 12:40:00,45.5,45.5,29.80,NNW,337,3.0,9.0,100,0.33,,---,0.52,VWS V14.01,2013-02-11 17:40:00,
2013-02-11 12:42:00,45.5,45.5,29.80,SW,226,1.0,9.0,100,0.33,,---,0.52,VWS V14.01,2013-02-11 17:42:00,
2013-02-11 12:44:00,45.5,45.5,29.80,SSW,203,0.0,9.0,100,0.33,,---,0.52,VWS V14.01,2013-02-11 17:44:00,
2013-02-11 12:45:00,45.4,45.4,29.79,West,272,2.0,9.0,100,0.33,,---,0.52,VWS V14.01,2013-02-11 17:45:00,
2013-02-11 12:47:00,45.4,45.4,29.79,WSW,246,9.0,11.0,100,0.24,,---,0.53,VWS V14.01,2013-02-11 17:47:00,
2013-02-11 12:49:00,45.2,45.2,29.79,WNW,288,4.0,11.0,100,0.24,,---,0.53,VWS V14.01,2013-02-11 17:49:00,
2013-02-11 12:50:00,45.1,45.1,29.79,West,270,2.0,11.0,100,0.24,,---,0.53,VWS V14.01,2013-02-11 17:50:00,
2013-02-11 12:52:00,44.8,44.8,29.79,WNW,282,7.0,11.0,100,0.24,,---,0.53,VWS V14.01,2013-02-11 17:52:00,
2013-02-11 12:54:00,44.9,44.9,29.79,WNW,301,3.0,11.0,100,0.24,,---,0.53,VWS V14.01,2013-02-11 17:54:00,
2013-02-11 12:55:00,44.8,44.8,29.79,WNW,289,3.0,11.0,100,0.24,,---,0.53,VWS V14.01,2013-02-11 17:55:00,
2013-02-11 12:56:00,44.8,44.8,29.79,WNW,285,8.0,11.0,100,0.25,,---,0.54,VWS V14.01,2013-02-11 17:56:00,
2013-02-11 12:57:00,44.6,44.6,29.79,WNW,291,5.0,11.0,100,0.25,,---,0.54,VWS V14.01,2013-02-11 17:57:00,
2013-02-11 12:59:00,44.6,44.6,29.79,WSW,244,7.0,11.0,100,0.26,,---,0.55,VWS V14.01,2013-02-11 17:59:00,
2013-02-11 13:00:00,44.9,44.9,29.79,WSW,254,5.0,11.0,100,0.26,,---,0.55,VWS V14.01,2013-02-11 18:00:00,
2013-02-11 13:01:00,44.9,44.9,29.79,WNW,299,4.0,5.0,100,0.18,,---,0.55,VWS V14.01,2013-02-11 18:01:00,
2013-02-11 13:02:00,45.2,45.2,29.79,South,188,6.0,7.0,100,0.18,,---,0.55,VWS V14.01,2013-02-11 18:02:00,
2013-02-11 13:05:00,45.4,45.4,29.79,West,265,4.0,7.0,100,0.19,,---,0.56,VWS V14.01,2013-02-11 18:05:00,
2013-02-11 13:06:00,45.5,45.5,29.79,WSW,256,5.0,7.0,100,0.19,,---,0.56,VWS V14.01,2013-02-11 18:06:00,
2013-02-11 13:07:00,45.5,45.5,29.79,South,181,7.0,8.0,100,0.19,,---,0.56,VWS V14.01,2013-02-11 18:07:00,
2013-02-11 13:10:00,45.5,45.5,29.79,SW,224,3.0,8.0,100,0.20,,---,0.57,VWS V14.01,2013-02-11 18:10:00,
2013-02-11 13:11:00,45.7,45.7,29.79,West,271,2.0,8.0,100,0.20,,---,0.57,VWS V14.01,2013-02-11 18:11:00,
2013-02-11 13:12:00,45.7,45.7,29.79,West,260,3.0,8.0,100,0.20,,---,0.57,VWS V14.01,2013-02-11 18:12:00,
2013-02-11 13:15:00,45.8,45.8,29.77,SSW,199,1.0,8.0,100,0.20,,---,0.57,VWS V14.01,2013-02-11 18:15:00,
2013-02-11 13:16:00,45.8,45.8,29.77,WSW,246,2.0,6.0,100,0.13,,---,0.58,VWS V14.01,2013-02-11 18:16:00,
2013-02-11 13:17:00,45.8,45.8,29.77,SW,226,3.0,6.0,100,0.13,,---,0.58,VWS V14.01,2013-02-11 18:17:00,
2013-02-11 13:20:00,45.7,45.7,29.77,WSW,241,6.0,8.0,100,0.13,,---,0.58,VWS V14.01,2013-02-11 18:20:00,
2013-02-11 13:21:00,45.8,45.8,29.77,WSW,250,3.0,8.0,100,0.13,,---,0.58,VWS V14.01,2013-02-11 18:21:00,
2013-02-11 13:22:00,45.7,45.7,29.77,WSW,251,2.0,8.0,100,0.13,,---,0.58,VWS V14.01,2013-02-11 18:22:00,
2013-02-11 13:25:00,45.7,45.7,29.77,WSW,244,7.0,8.0,100,0.14,,---,0.59,VWS V14.01,2013-02-11 18:25:00,
2013-02-11 13:26:00,45.7,45.7,29.77,WNW,296,3.0,11.0,100,0.14,,---,0.59,VWS V14.01,2013-02-11 18:26:00,
2013-02-11 13:27:00,45.8,45.8,29.77,West,275,6.0,11.0,100,0.15,,---,0.60,VWS V14.01,2013-02-11 18:27:00,
2013-02-11 13:30:00,45.8,45.8,29.76,West,263,0.0,11.0,100,0.15,,---,0.60,VWS V14.01,2013-02-11 18:30:00,
2013-02-11 13:31:00,45.8,45.8,29.76,SW,217,2.0,11.0,100,0.10,,---,0.60,VWS V14.01,2013-02-11 18:31:00,
2013-02-11 13:32:00,45.7,45.7,29.76,WSW,256,4.0,11.0,100,0.10,,---,0.60,VWS V14.01,2013-02-11 18:32:00,
2013-02-11 13:35:00,45.8,45.8,29.76,WSW,244,4.0,11.0,100,0.11,,---,0.61,VWS V14.01,2013-02-11 18:35:00,
2013-02-11 13:36:00,45.8,45.8,29.76,WSW,258,6.0,11.0,100,0.11,,---,0.61,VWS V14.01,2013-02-11 18:36:00,
2013-02-11 13:37:00,45.8,45.8,29.76,WSW,240,6.0,11.0,100,0.11,,---,0.61,VWS V14.01,2013-02-11 18:37:00,
2013-02-11 13:40:00,45.8,45.8,29.76,West,271,6.0,11.0,100,0.12,,---,0.62,VWS V14.01,2013-02-11 18:40:00,
2013-02-11 13:41:00,45.8,45.8,29.76,SSW,209,5.0,11.0,100,0.12,,---,0.62,VWS V14.01,2013-02-11 18:41:00,
2013-02-11 13:42:00,45.8,45.8,29.76,WSW,244,5.0,11.0,100,0.12,,---,0.62,VWS V14.01,2013-02-11 18:42:00,
2013-02-11 13:43:00,45.8,45.8,29.76,WSW,239,3.0,11.0,100,0.12,,---,0.62,VWS V14.01,2013-02-11 18:43:00,
2013-02-11 13:45:00,45.8,45.8,29.75,SW,232,3.0,11.0,100,0.12,,---,0.62,VWS V14.01,2013-02-11 18:45:00,
2013-02-11 13:46:00,45.8,45.8,29.75,SW,233,6.0,11.0,100,0.11,,---,0.63,VWS V14.01,2013-02-11 18:46:00,
2013-02-11 13:47:00,45.8,45.8,29.75,WSW,243,2.0,11.0,100,0.11,,---,0.63,VWS V14.01,2013-02-11 18:47:00,
2013-02-11 13:48:00,45.8,45.8,29.75,West,263,11.0,11.0,100,0.11,,---,0.63,VWS V14.01,2013-02-11 18:48:00,
2013-02-11 13:50:00,46.0,46.0,29.75,West,264,2.0,11.0,100,0.11,,---,0.63,VWS V14.01,2013-02-11 18:50:00,
2013-02-11 13:51:00,45.8,45.8,29.75,WSW,256,4.0,11.0,100,0.11,,---,0.63,VWS V14.01,2013-02-11 18:51:00,
2013-02-11 13:52:00,45.8,45.8,29.75,WSW,257,8.0,11.0,100,0.11,,---,0.63,VWS V14.01,2013-02-11 18:52:00,
2013-02-11 13:53:00,45.8,45.8,29.75,SW,223,4.0,11.0,100,0.11,,---,0.63,VWS V14.01,2013-02-11 18:53:00,
2013-02-11 13:56:00,45.8,45.8,29.75,WSW,246,6.0,11.0,100,0.11,,---,0.63,VWS V14.01,2013-02-11 18:56:00,
2013-02-11 13:57:00,45.8,45.8,29.75,SW,230,3.0,11.0,100,0.11,,---,0.63,VWS V14.01,2013-02-11 18:57:00,
2013-02-11 13:58:00,45.8,45.8,29.75,SW,230,0.0,11.0,100,0.11,,---,0.63,VWS V14.01,2013-02-11 18:58:00,
2013-02-11 14:01:00,45.8,45.8,29.73,WSW,253,3.0,3.0,100,0.08,,---,0.63,VWS V14.01,2013-02-11 19:01:00,
2013-02-11 14:02:00,45.8,45.8,29.73,SW,236,3.0,5.0,100,0.09,,---,0.64,VWS V14.01,2013-02-11 19:02:00,
2013-02-11 14:03:00,45.8,45.8,29.73,SW,222,5.0,5.0,100,0.09,,---,0.64,VWS V14.01,2013-02-11 19:03:00,
2013-02-11 14:06:00,45.7,45.7,29.73,WSW,248,6.0,6.0,100,0.09,,---,0.64,VWS V14.01,2013-02-11 19:06:00,
2013-02-11 14:07:00,45.7,45.7,29.73,West,261,2.0,6.0,100,0.09,,---,0.64,VWS V14.01,2013-02-11 19:07:00,
2013-02-11 14:08:00,45.7,45.7,29.73,West,261,1.0,6.0,100,0.09,,---,0.64,VWS V14.01,2013-02-11 19:08:00,
2013-02-11 14:11:00,45.7,45.7,29.73,SSW,212,0.0,6.0,100,0.09,,---,0.64,VWS V14.01,2013-02-11 19:11:00,
2013-02-11 14:12:00,45.7,45.7,29.73,WSW,237,3.0,6.0,100,0.09,,---,0.64,VWS V14.01,2013-02-11 19:12:00,
2013-02-11 14:13:00,45.7,45.7,29.73,West,260,0.0,6.0,100,0.09,,---,0.64,VWS V14.01,2013-02-11 19:13:00,
2013-02-11 14:17:00,45.5,45.5,29.72,WSW,250,0.0,0.0,100,0.06,,---,0.64,VWS V14.01,2013-02-11 19:17:00,
2013-02-11 14:18:00,45.5,45.5,29.72,SSW,200,2.0,6.0,100,0.06,,---,0.64,VWS V14.01,2013-02-11 19:18:00,
2013-02-11 14:22:00,45.5,45.5,29.72,SSW,208,0.0,7.0,100,0.06,,---,0.64,VWS V14.01,2013-02-11 19:22:00,
2013-02-11 14:23:00,45.5,45.5,29.72,WSW,247,0.0,7.0,100,0.06,,---,0.64,VWS V14.01,2013-02-11 19:23:00,
2013-02-11 14:27:00,45.4,45.4,29.72,SSW,210,6.0,7.0,100,0.06,,---,0.64,VWS V14.01,2013-02-11 19:27:00,
2013-02-11 14:28:00,45.5,45.5,29.72,SW,230,2.0,7.0,100,0.06,,---,0.64,VWS V14.01,2013-02-11 19:28:00,
2013-02-11 14:29:00,45.5,45.5,29.72,SW,230,0.0,7.0,100,0.06,,---,0.64,VWS V14.01,2013-02-11 19:29:00,
2013-02-11 14:32:00,45.4,45.4,29.72,SW,215,3.0,6.0,100,0.04,,---,0.64,VWS V14.01,2013-02-11 19:32:00,
2013-02-11 14:33:00,45.2,45.2,29.72,SSE,167,4.0,6.0,100,0.04,,---,0.64,VWS V14.01,2013-02-11 19:33:00,
2013-02-11 14:34:00,45.2,45.2,29.72,South,188,2.0,6.0,100,0.04,,---,0.64,VWS V14.01,2013-02-11 19:34:00,
2013-02-11 14:37:00,45.2,45.2,29.72,South,176,3.0,6.0,100,0.04,,---,0.64,VWS V14.01,2013-02-11 19:37:00,
2013-02-11 14:38:00,45.1,45.1,29.72,SSW,213,2.0,6.0,100,0.04,,---,0.64,VWS V14.01,2013-02-11 19:38:00,
2013-02-11 14:39:00,45.1,45.1,29.72,SSW,213,0.0,6.0,100,0.04,,---,0.64,VWS V14.01,2013-02-11 19:39:00,
2013-02-11 14:42:00,44.8,44.8,29.72,SSE,164,5.0,6.0,100,0.04,,---,0.64,VWS V14.01,2013-02-11 19:42:00,
2013-02-11 14:43:00,44.8,44.8,29.72,South,169,5.0,6.0,100,0.04,,---,0.64,VWS V14.01,2013-02-11 19:43:00,
2013-02-11 14:44:00,44.8,44.8,29.72,SSW,212,2.0,6.0,100,0.04,,---,0.64,VWS V14.01,2013-02-11 19:44:00,
2013-02-11 14:47:00,44.6,44.6,29.70,WSW,248,6.0,6.0,100,0.02,,---,0.64,VWS V14.01,2013-02-11 19:47:00,
2013-02-11 14:48:00,44.6,44.6,29.70,SW,219,5.0,6.0,100,0.02,,---,0.64,VWS V14.01,2013-02-11 19:48:00,
2013-02-11 14:49:00,44.6,44.6,29.70,SSW,202,2.0,6.0,100,0.02,,---,0.64,VWS V14.01,2013-02-11 19:49:00,
2013-02-11 14:52:00,44.6,44.6,29.70,SW,223,3.0,8.0,100,0.02,,---,0.64,VWS V14.01,2013-02-11 19:52:00,
2013-02-11 14:53:00,44.6,44.6,29.70,WSW,254,7.0,8.0,100,0.02,,---,0.64,VWS V14.01,2013-02-11 19:53:00,
2013-02-11 14:54:00,44.8,44.8,29.70,SSW,205,5.0,8.0,100,0.02,,---,0.64,VWS V14.01,2013-02-11 19:54:00,
2013-02-11 14:57:00,45.1,45.1,29.70,SW,219,2.0,11.0,100,0.02,,---,0.64,VWS V14.01,2013-02-11 19:57:00,
2013-02-11 14:58:00,44.9,44.9,29.70,SSW,200,3.0,11.0,100,0.02,,---,0.64,VWS V14.01,2013-02-11 19:58:00,
2013-02-11 14:59:00,44.9,44.9,29.70,South,176,2.0,11.0,100,0.02,,---,0.64,VWS V14.01,2013-02-11 19:59:00,
2013-02-11 15:02:00,44.9,44.9,29.70,WSW,251,0.0,6.0,100,0.01,,---,0.64,VWS V14.01,2013-02-11 20:02:00,
2013-02-11 15:03:00,44.9,44.9,29.70,SSW,213,3.0,6.0,100,0.01,,---,0.64,VWS V14.01,2013-02-11 20:03:00,
2013-02-11 15:04:00,44.9,44.9,29.70,WSW,246,0.0,6.0,100,0.01,,---,0.64,VWS V14.01,2013-02-11 20:04:00,
2013-02-11 15:07:00,44.8,44.8,29.70,SSW,203,5.0,6.0,100,0.01,,---,0.64,VWS V14.01,2013-02-11 20:07:00,
2013-02-11 15:08:00,44.9,44.9,29.70,SW,232,7.0,7.0,100,0.01,,---,0.64,VWS V14.01,2013-02-11 20:08:00,
2013-02-11 15:09:00,44.9,44.9,29.70,SW,226,2.0,8.0,100,0.01,,---,0.64,VWS V14.01,2013-02-11 20:09:00,
2013-02-11 15:10:00,45.1,45.1,29.70,SSW,206,3.0,8.0,100,0.01,,---,0.64,VWS V14.01,2013-02-11 20:10:00,
2013-02-11 15:12:00,45.1,45.1,29.70,South,189,2.0,8.0,100,0.01,,---,0.64,VWS V14.01,2013-02-11 20:12:00,
2013-02-11 15:13:00,44.9,44.9,29.70,WSW,241,3.0,8.0,100,0.01,,---,0.64,VWS V14.01,2013-02-11 20:13:00,
2013-02-11 15:14:00,44.9,44.9,29.70,SW,227,1.0,8.0,100,0.01,,---,0.64,VWS V14.01,2013-02-11 20:14:00,
2013-02-11 15:15:00,44.9,44.9,29.69,SW,233,1.0,8.0,100,0.01,,---,0.64,VWS V14.01,2013-02-11 20:15:00,
2013-02-11 15:17:00,44.8,44.8,29.69,West,260,5.0,5.0,100,0.00,,---,0.64,VWS V14.01,2013-02-11 20:17:00,
2013-02-11 15:18:00,44.8,44.8,29.69,SW,227,0.0,5.0,100,0.00,,---,0.64,VWS V14.01,2013-02-11 20:18:00,
2013-02-11 15:20:00,44.8,44.8,29.69,WSW,244,5.0,7.0,100,0.00,,---,0.64,VWS V14.01,2013-02-11 20:20:00,
2013-02-11 15:22:00,44.9,44.9,29.69,WSW,251,0.0,7.0,100,0.00,,---,0.64,VWS V14.01,2013-02-11 20:22:00,
2013-02-11 15:23:00,44.9,44.9,29.69,WSW,251,0.0,7.0,100,0.00,,---,0.64,VWS V14.01,2013-02-11 20:23:00,
2013-02-11 15:25:00,44.9,44.9,29.69,WSW,239,3.0,7.0,100,0.00,,---,0.64,VWS V14.01,2013-02-11 20:25:00,
2013-02-11 15:27:00,44.9,44.9,29.69,West,278,5.0,9.0,100,0.00,,---,0.64,VWS V14.01,2013-02-11 20:27:00,
2013-02-11 15:28:00,44.9,44.9,29.69,SW,232,7.0,9.0,100,0.00,,---,0.64,VWS V14.01,2013-02-11 20:28:00,
2013-02-11 15:30:00,44.9,44.9,29.69,WSW,254,6.0,9.0,100,0.00,,---,0.64,VWS V14.01,2013-02-11 20:30:00,
2013-02-11 15:32:00,44.9,44.9,29.69,SW,233,2.0,6.0,100,0.00,,---,0.64,VWS V14.01,2013-02-11 20:32:00,
2013-02-11 15:33:00,44.9,44.9,29.69,SW,220,2.0,6.0,100,0.00,,---,0.64,VWS V14.01,2013-02-11 20:33:00,
2013-02-11 15:35:00,44.9,44.9,29.69,WSW,248,8.0,8.0,100,0.00,,---,0.64,VWS V14.01,2013-02-11 20:35:00,
2013-02-11 15:38:00,44.9,44.9,29.69,SW,234,7.0,11.0,100,0.00,,---,0.64,VWS V14.01,2013-02-11 20:38:00,
2013-02-11 15:40:00,44.8,44.8,29.69,SW,236,6.0,11.0,100,0.00,,---,0.64,VWS V14.01,2013-02-11 20:40:00,
2013-02-11 15:43:00,44.8,44.8,29.69,SW,216,1.0,12.0,100,0.00,,---,0.64,VWS V14.01,2013-02-11 20:43:00,
2013-02-11 15:44:00,44.8,44.8,29.69,SW,229,3.0,12.0,100,0.00,,---,0.64,VWS V14.01,2013-02-11 20:44:00,
2013-02-11 15:45:00,44.8,44.8,29.68,WSW,244,1.0,12.0,100,0.00,,---,0.64,VWS V14.01,2013-02-11 20:45:00,
2013-02-11 15:48:00,44.8,44.8,29.68,SW,227,3.0,6.0,100,0.00,,---,0.64,VWS V14.01,2013-02-11 20:48:00,
2013-02-11 15:49:00,44.8,44.8,29.68,SSW,202,6.0,10.0,100,0.00,,---,0.64,VWS V14.01,2013-02-11 20:49:00,
2013-02-11 15:50:00,44.9,44.9,29.68,SSW,213,6.0,10.0,100,0.00,,---,0.64,VWS V14.01,2013-02-11 20:50:00,
2013-02-11 15:53:00,44.9,44.9,29.68,WSW,239,5.0,10.0,100,0.00,,---,0.64,VWS V14.01,2013-02-11 20:53:00,
2013-02-11 15:54:00,45.1,45.1,29.68,WSW,237,2.0,11.0,100,0.00,,---,0.64,VWS V14.01,2013-02-11 20:54:00,
2013-02-11 15:55:00,45.1,45.1,29.68,SW,224,6.0,11.0,100,0.00,,---,0.64,VWS V14.01,2013-02-11 20:55:00,
2013-02-11 15:58:00,45.1,45.1,29.68,SW,227,2.0,11.0,100,0.00,,---,0.64,VWS V14.01,2013-02-11 20:58:00,
2013-02-11 15:59:00,44.9,44.9,29.68,SW,227,0.0,11.0,100,0.00,,---,0.64,VWS V14.01,2013-02-11 20:59:00,
2013-02-11 16:00:00,44.9,44.9,29.67,SW,229,5.0,11.0,100,0.00,,---,0.64,VWS V14.01,2013-02-11 21:00:00,
2013-02-11 16:01:00,44.9,44.9,29.67,SW,224,5.0,5.0,100,0.00,,---,0.64,VWS V14.01,2013-02-11 21:01:00,
2013-02-11 16:03:00,45.1,45.1,29.67,SW,233,5.0,6.0,100,0.00,,---,0.64,VWS V14.01,2013-02-11 21:03:00,
2013-02-11 16:04:00,45.1,45.1,29.67,WSW,237,2.0,6.0,100,0.00,,---,0.64,VWS V14.01,2013-02-11 21:04:00,
2013-02-11 16:05:00,45.1,45.1,29.67,SW,234,6.0,6.0,100,0.00,,---,0.64,VWS V14.01,2013-02-11 21:05:00,
2013-02-11 16:06:00,45.2,45.2,29.67,WSW,244,0.0,6.0,100,0.00,,---,0.64,VWS V14.01,2013-02-11 21:06:00,
2013-02-11 16:08:00,45.1,45.1,29.67,WSW,244,0.0,6.0,100,0.00,,---,0.64,VWS V14.01,2013-02-11 21:08:00,
2013-02-11 16:09:00,45.1,45.1,29.67,WSW,237,5.0,6.0,100,0.00,,---,0.64,VWS V14.01,2013-02-11 21:09:00,
2013-02-11 16:10:00,44.9,44.9,29.67,South,185,0.0,6.0,100,0.00,,---,0.64,VWS V14.01,2013-02-11 21:10:00,
2013-02-11 16:11:00,44.9,44.9,29.67,SSW,193,3.0,6.0,100,0.00,,---,0.64,VWS V14.01,2013-02-11 21:11:00,
2013-02-11 16:13:00,44.9,44.9,29.67,WSW,244,2.0,6.0,100,0.00,,---,0.64,VWS V14.01,2013-02-11 21:13:00,
2013-02-11 16:14:00,44.9,44.9,29.67,WSW,247,2.0,6.0,100,0.00,,---,0.64,VWS V14.01,2013-02-11 21:14:00,
2013-02-11 16:15:00,44.9,44.9,29.66,SSE,165,0.0,6.0,100,0.00,,---,0.64,VWS V14.01,2013-02-11 21:15:00,
2013-02-11 16:16:00,44.8,44.8,29.66,West,261,1.0,2.0,100,0.00,,---,0.64,VWS V14.01,2013-02-11 21:16:00,
2013-02-11 16:18:00,44.8,44.8,29.66,West,261,0.0,2.0,100,0.00,,---,0.64,VWS V14.01,2013-02-11 21:18:00,
2013-02-11 16:20:00,44.8,44.8,29.66,West,261,0.0,2.0,100,0.00,,---,0.64,VWS V14.01,2013-02-11 21:20:00,
2013-02-11 16:21:00,44.6,44.6,29.66,WSW,248,6.0,6.0,100,0.00,,---,0.64,VWS V14.01,2013-02-11 21:21:00,
2013-02-11 16:24:00,44.5,44.5,29.66,WSW,250,0.0,6.0,100,0.00,,---,0.64,VWS V14.01,2013-02-11 21:24:00,
2013-02-11 16:25:00,44.3,44.3,29.66,WSW,258,5.0,8.0,100,0.00,,---,0.64,VWS V14.01,2013-02-11 21:25:00,
2013-02-11 16:26:00,44.3,44.3,29.66,WSW,251,8.0,8.0,100,0.00,,---,0.64,VWS V14.01,2013-02-11 21:26:00,
2013-02-11 16:29:00,44.3,44.3,29.66,WSW,241,6.0,10.0,100,0.00,,---,0.64,VWS V14.01,2013-02-11 21:29:00,
2013-02-11 16:30:00,44.3,44.3,29.66,WSW,251,3.0,10.0,100,0.00,,---,0.64,VWS V14.01,2013-02-11 21:30:00,
2013-02-11 16:31:00,44.3,44.3,29.66,WSW,240,0.0,1.0,100,0.00,,---,0.64,VWS V14.01,2013-02-11 21:31:00,
2013-02-11 16:34:00,44.2,44.2,29.66,SW,230,0.0,5.0,100,0.00,,---,0.64,VWS V14.01,2013-02-11 21:34:00,
2013-02-11 16:35:00,44.2,44.2,29.66,WSW,254,2.0,5.0,100,0.00,,---,0.64,VWS V14.01,2013-02-11 21:35:00,
2013-02-11 16:36:00,44.2,44.2,29.66,WSW,254,0.0,5.0,100,0.00,,---,0.64,VWS V14.01,2013-02-11 21:36:00,
2013-02-11 16:39:00,44.2,44.2,29.66,SW,236,0.0,6.0,100,0.00,,---,0.64,VWS V14.01,2013-02-11 21:39:00,
2013-02-11 16:40:00,44.2,44.2,29.66,SW,223,1.0,6.0,100,0.00,,---,0.64,VWS V14.01,2013-02-11 21:40:00,
2013-02-11 16:41:00,44.1,44.1,29.66,SW,223,2.0,6.0,100,0.00,,---,0.64,VWS V14.01,2013-02-11 21:41:00,
2013-02-11 16:44:00,44.1,44.1,29.66,SW,223,0.0,6.0,100,0.00,,---,0.64,VWS V14.01,2013-02-11 21:44:00,
2013-02-11 16:45:00,44.1,44.1,29.64,WSW,239,1.0,6.0,100,0.00,,---,0.64,VWS V14.01,2013-02-11 21:45:00,
2013-02-11 16:46:00,44.1,44.1,29.64,WSW,239,0.0,0.0,100,0.00,,---,0.64,VWS V14.01,2013-02-11 21:46:00,
2013-02-11 16:49:00,43.9,43.9,29.64,SW,230,5.0,5.0,100,0.00,,---,0.64,VWS V14.01,2013-02-11 21:49:00,
2013-02-11 16:50:00,44.1,44.1,29.64,SW,233,1.0,5.0,100,0.00,,---,0.64,VWS V14.01,2013-02-11 21:50:00,
2013-02-11 16:51:00,44.1,44.1,29.64,SW,233,0.0,5.0,100,0.00,,---,0.64,VWS V14.01,2013-02-11 21:51:00,
2013-02-11 16:55:00,44.1,44.1,29.64,WSW,253,0.0,5.0,100,0.00,,---,0.64,VWS V14.01,2013-02-11 21:55:00,
2013-02-11 16:56:00,44.1,44.1,29.64,WSW,253,0.0,5.0,100,0.00,,---,0.64,VWS V14.01,2013-02-11 21:56:00,
2013-02-11 17:00:00,43.9,43.9,29.64,SW,226,3.0,5.0,100,0.00,,---,0.64,VWS V14.01,2013-02-11 22:00:00,
2013-02-11 17:01:00,43.9,43.9,29.64,SW,234,0.0,0.0,100,0.00,,---,0.64,VWS V14.01,2013-02-11 22:01:00,
2013-02-11 17:02:00,43.9,43.9,29.64,SW,233,0.0,0.0,100,0.00,,---,0.64,VWS V14.01,2013-02-11 22:02:00,
2013-02-11 17:05:00,43.9,43.9,29.64,WSW,256,1.0,3.0,100,0.00,,---,0.64,VWS V14.01,2013-02-11 22:05:00,
2013-02-11 17:06:00,43.9,43.9,29.64,SW,234,2.0,3.0,100,0.00,,---,0.64,VWS V14.01,2013-02-11 22:06:00,
2013-02-11 17:07:00,43.9,43.9,29.64,WSW,256,5.0,5.0,100,0.00,,---,0.64,VWS V14.01,2013-02-11 22:07:00,
2013-02-11 17:10:00,43.9,43.9,29.64,WSW,239,1.0,5.0,100,0.00,,---,0.64,VWS V14.01,2013-02-11 22:10:00,
2013-02-11 17:11:00,43.9,43.9,29.64,WSW,241,0.0,5.0,100,0.00,,---,0.64,VWS V14.01,2013-02-11 22:11:00,
2013-02-11 17:12:00,43.9,43.9,29.64,WSW,241,0.0,5.0,100,0.00,,---,0.64,VWS V14.01,2013-02-11 22:12:00,
2013-02-11 17:15:00,43.8,43.8,29.62,WSW,257,1.0,7.0,100,0.00,,---,0.64,VWS V14.01,2013-02-11 22:15:00,
2013-02-11 17:16:00,43.8,43.8,29.62,West,267,5.0,5.0,100,0.00,,---,0.64,VWS V14.01,2013-02-11 22:16:00,
2013-02-11 17:17:00,43.8,43.8,29.62,WSW,251,5.0,5.0,100,0.00,,---,0.64,VWS V14.01,2013-02-11 22:17:00,
2013-02-11 17:20:00,43.6,43.6,29.62,WSW,256,1.0,5.0,100,0.00,,---,0.64,VWS V14.01,2013-02-11 22:20:00,
2013-02-11 17:21:00,43.6,43.6,29.62,WSW,256,1.0,5.0,100,0.00,,---,0.64,VWS V14.01,2013-02-11 22:21:00,
2013-02-11 17:22:00,43.6,43.6,29.62,WSW,256,0.0,5.0,100,0.00,,---,0.64,VWS V14.01,2013-02-11 22:22:00,
2013-02-11 17:25:00,43.6,43.6,29.62,WSW,256,0.0,5.0,100,0.00,,---,0.64,VWS V14.01,2013-02-11 22:25:00,
2013-02-11 17:26:00,43.8,43.8,29.62,WSW,256,1.0,5.0,100,0.00,,---,0.64,VWS V14.01,2013-02-11 22:26:00,
2013-02-11 17:27:00,43.8,43.8,29.62,WSW,256,1.0,5.0,100,0.00,,---,0.64,VWS V14.01,2013-02-11 22:27:00,
2013-02-11 17:31:00,43.8,43.8,29.63,SW,219,2.0,3.0,100,0.00,,---,0.64,VWS V14.01,2013-02-11 22:31:00,
2013-02-11 17:32:00,43.8,43.8,29.63,SSW,213,1.0,3.0,100,0.00,,---,0.64,VWS V14.01,2013-02-11 22:32:00,
2013-02-11 17:36:00,43.8,43.8,29.63,SSW,209,0.0,5.0,100,0.00,,---,0.64,VWS V14.01,2013-02-11 22:36:00,
2013-02-11 17:37:00,43.8,43.8,29.63,SW,215,0.0,5.0,100,0.00,,---,0.64,VWS V14.01,2013-02-11 22:37:00,
2013-02-11 17:41:00,43.8,43.8,29.63,SW,226,0.0,5.0,100,0.00,,---,0.64,VWS V14.01,2013-02-11 22:41:00,
2013-02-11 17:42:00,43.8,43.8,29.63,SW,226,0.0,5.0,100,0.00,,---,0.64,VWS V14.01,2013-02-11 22:42:00,
2013-02-11 17:46:00,43.6,43.6,29.62,SW,236,2.0,3.0,100,0.00,,---,0.64,VWS V14.01,2013-02-11 22:46:00,
2013-02-11 17:47:00,43.8,43.8,29.62,SW,233,0.0,3.0,100,0.01,,---,0.65,VWS V14.01,2013-02-11 22:47:00,
2013-02-11 17:48:00,43.8,43.8,29.62,SW,233,0.0,3.0,100,0.01,,---,0.65,VWS V14.01,2013-02-11 22:48:00,
2013-02-11 17:51:00,43.8,43.8,29.62,SW,233,0.0,3.0,100,0.01,,---,0.65,VWS V14.01,2013-02-11 22:51:00,
2013-02-11 17:52:00,43.8,43.8,29.62,SW,233,0.0,3.0,100,0.01,,---,0.65,VWS V14.01,2013-02-11 22:52:00,
2013-02-11 17:53:00,43.8,43.8,29.62,SW,233,1.0,3.0,100,0.01,,---,0.65,VWS V14.01,2013-02-11 22:53:00,
2013-02-11 17:56:00,43.6,43.6,29.62,SW,233,1.0,3.0,100,0.01,,---,0.65,VWS V14.01,2013-02-11 22:56:00,
2013-02-11 17:57:00,43.6,43.6,29.62,WSW,244,3.0,3.0,100,0.01,,---,0.65,VWS V14.01,2013-02-11 22:57:00,
2013-02-11 17:58:00,43.6,43.6,29.62,WSW,241,2.0,3.0,100,0.01,,---,0.65,VWS V14.01,2013-02-11 22:58:00,
2013-02-11 18:01:00,43.6,43.6,29.62,WSW,241,0.0,0.0,100,0.01,,---,0.65,VWS V14.01,2013-02-11 23:01:00,
2013-02-11 18:02:00,43.5,43.5,29.62,WSW,241,0.0,0.0,100,0.01,,---,0.65,VWS V14.01,2013-02-11 23:02:00,
2013-02-11 18:03:00,43.5,43.5,29.62,WSW,241,0.0,2.0,100,0.01,,---,0.65,VWS V14.01,2013-02-11 23:03:00,
2013-02-11 18:06:00,43.5,43.5,29.62,WSW,241,0.0,2.0,100,0.01,,---,0.65,VWS V14.01,2013-02-11 23:06:00,
2013-02-11 18:07:00,43.5,43.5,29.62,WSW,241,1.0,2.0,100,0.01,,---,0.65,VWS V14.01,2013-02-11 23:07:00,
2013-02-11 18:08:00,43.5,43.5,29.62,WSW,241,2.0,2.0,100,0.01,,---,0.65,VWS V14.01,2013-02-11 23:08:00,
2013-02-11 18:11:00,43.5,43.5,29.62,WSW,241,0.0,2.0,100,0.01,,---,0.65,VWS V14.01,2013-02-11 23:11:00,
2013-02-11 18:12:00,43.5,43.5,29.62,WSW,241,0.0,2.0,100,0.01,,---,0.65,VWS V14.01,2013-02-11 23:12:00,
2013-02-11 18:13:00,43.5,43.5,29.62,WSW,241,0.0,2.0,100,0.01,,---,0.65,VWS V14.01,2013-02-11 23:13:00,
2013-02-11 18:16:00,43.5,43.5,29.62,West,270,2.0,2.0,100,0.01,,---,0.65,VWS V14.01,2013-02-11 23:16:00,
2013-02-11 18:17:00,43.5,43.5,29.62,West,270,1.0,2.0,100,0.01,,---,0.65,VWS V14.01,2013-02-11 23:17:00,
2013-02-11 18:18:00,43.5,43.5,29.62,West,270,0.0,2.0,100,0.01,,---,0.65,VWS V14.01,2013-02-11 23:18:00,
2013-02-11 18:21:00,43.5,43.5,29.62,West,270,0.0,2.0,100,0.01,,---,0.65,VWS V14.01,2013-02-11 23:21:00,
2013-02-11 18:22:00,43.5,43.5,29.62,West,270,0.0,2.0,100,0.01,,---,0.65,VWS V14.01,2013-02-11 23:22:00,
2013-02-11 18:23:00,43.5,43.5,29.62,West,270,1.0,2.0,100,0.01,,---,0.65,VWS V14.01,2013-02-11 23:23:00,
2013-02-11 18:26:00,43.5,43.5,29.62,West,270,0.0,2.0,100,0.01,,---,0.65,VWS V14.01,2013-02-11 23:26:00,
2013-02-11 18:27:00,43.5,43.5,29.62,West,270,0.0,2.0,100,0.01,,---,0.65,VWS V14.01,2013-02-11 23:27:00,
2013-02-11 18:28:00,43.5,43.5,29.62,West,270,0.0,2.0,100,0.01,,---,0.65,VWS V14.01,2013-02-11 23:28:00,
2013-02-11 18:31:00,43.3,43.3,29.61,West,270,0.0,0.0,100,0.01,,---,0.65,VWS V14.01,2013-02-11 23:31:00,
2013-02-11 18:32:00,43.3,43.3,29.61,West,270,0.0,0.0,100,0.01,,---,0.65,VWS V14.01,2013-02-11 23:32:00,
2013-02-11 18:33:00,43.3,43.3,29.61,West,270,0.0,0.0,100,0.01,,---,0.65,VWS V14.01,2013-02-11 23:33:00,
2013-02-11 18:37:00,43.3,43.3,29.61,West,270,0.0,0.0,100,0.01,,---,0.65,VWS V14.01,2013-02-11 23:37:00,
2013-02-11 18:38:00,43.3,43.3,29.61,West,270,0.0,0.0,100,0.01,,---,0.65,VWS V14.01,2013-02-11 23:38:00,
2013-02-11 18:42:00,43.3,43.3,29.61,West,270,0.0,0.0,100,0.01,,---,0.65,VWS V14.01,2013-02-11 23:42:00,
2013-02-11 18:43:00,43.3,43.3,29.61,West,270,0.0,0.0,100,0.01,,---,0.65,VWS V14.01,2013-02-11 23:43:00,
2013-02-11 18:47:00,43.3,43.3,29.61,West,270,0.0,0.0,100,0.01,,---,0.65,VWS V14.01,2013-02-11 23:47:00,
2013-02-11 18:49:00,43.3,43.3,29.61,West,270,0.0,0.0,100,0.01,,---,0.65,VWS V14.01,2013-02-11 23:49:00,
2013-02-11 18:52:00,43.3,43.3,29.61,West,270,0.0,0.0,100,0.01,,---,0.65,VWS V14.01,2013-02-11 23:52:00,
2013-02-11 18:53:00,43.3,43.3,29.61,West,270,0.0,0.0,100,0.01,,---,0.65,VWS V14.01,2013-02-11 23:53:00,
2013-02-11 18:54:00,43.2,43.2,29.61,West,270,0.0,0.0,100,0.01,,---,0.65,VWS V14.01,2013-02-11 23:54:00,
2013-02-11 18:57:00,43.2,43.2,29.61,West,270,0.0,1.0,100,0.01,,---,0.65,VWS V14.01,2013-02-11 23:57:00,
2013-02-11 18:58:00,43.2,43.2,29.61,West,270,0.0,1.0,100,0.01,,---,0.65,VWS V14.01,2013-02-11 23:58:00,
2013-02-11 18:59:00,43.2,43.2,29.61,West,270,3.0,3.0,100,0.01,,---,0.65,VWS V14.01,2013-02-11 23:59:00,
2013-02-11 19:02:00,43.1,43.1,29.60,West,270,0.0,0.0,100,0.00,,---,0.65,VWS V14.01,2013-02-12 00:02:00,
2013-02-11 19:03:00,43.1,43.1,29.60,West,270,0.0,0.0,100,0.00,,---,0.65,VWS V14.01,2013-02-12 00:03:00,
2013-02-11 19:04:00,43.1,43.1,29.60,West,270,0.0,0.0,100,0.00,,---,0.65,VWS V14.01,2013-02-12 00:04:00,
2013-02-11 19:07:00,43.1,43.1,29.60,SSW,206,1.0,3.0,100,0.00,,---,0.65,VWS V14.01,2013-02-12 00:07:00,
2013-02-11 19:08:00,43.1,43.1,29.60,SSW,206,0.0,3.0,100,0.00,,---,0.65,VWS V14.01,2013-02-12 00:08:00,
2013-02-11 19:09:00,43.1,43.1,29.60,SSW,206,0.0,3.0,100,0.00,,---,0.65,VWS V14.01,2013-02-12 00:09:00,
2013-02-11 19:12:00,43.1,43.1,29.60,SSW,206,0.0,3.0,100,0.00,,---,0.65,VWS V14.01,2013-02-12 00:12:00,
2013-02-11 19:13:00,42.9,42.9,29.60,SSW,206,0.0,3.0,100,0.00,,---,0.65,VWS V14.01,2013-02-12 00:13:00,
2013-02-11 19:14:00,42.9,42.9,29.60,SSW,206,0.0,3.0,100,0.00,,---,0.65,VWS V14.01,2013-02-12 00:14:00,
2013-02-11 19:17:00,42.9,42.9,29.60,SSW,206,0.0,0.0,100,0.00,,---,0.65,VWS V14.01,2013-02-12 00:17:00,
2013-02-11 19:18:00,42.9,42.9,29.60,SSW,206,0.0,0.0,100,0.00,,---,0.65,VWS V14.01,2013-02-12 00:18:00,
2013-02-11 19:19:00,42.9,42.9,29.60,SSW,206,0.0,0.0,100,0.00,,---,0.65,VWS V14.01,2013-02-12 00:19:00,
2013-02-11 19:22:00,42.8,42.8,29.60,SSW,206,0.0,0.0,100,0.00,,---,0.65,VWS V14.01,2013-02-12 00:22:00,
2013-02-11 19:23:00,42.8,42.8,29.60,SSW,206,0.0,0.0,100,0.00,,---,0.65,VWS V14.01,2013-02-12 00:23:00,
2013-02-11 19:24:00,42.8,42.8,29.60,SSW,206,0.0,0.0,100,0.00,,---,0.65,VWS V14.01,2013-02-12 00:24:00,
2013-02-11 19:25:00,42.8,42.8,29.60,SSW,206,0.0,0.0,100,0.00,,---,0.65,VWS V14.01,2013-02-12 00:25:00,
2013-02-11 19:27:00,42.8,42.8,29.60,SSW,206,0.0,1.0,100,0.00,,---,0.65,VWS V14.01,2013-02-12 00:27:00,
2013-02-11 19:28:00,42.8,42.8,29.60,SSW,206,0.0,1.0,100,0.00,,---,0.65,VWS V14.01,2013-02-12 00:28:00,
2013-02-11 19:29:00,42.8,42.8,29.60,SSW,206,0.0,1.0,100,0.00,,---,0.65,VWS V14.01,2013-02-12 00:29:00,
2013-02-11 19:30:00,42.8,42.8,29.59,SSW,206,0.0,1.0,100,0.00,,---,0.65,VWS V14.01,2013-02-12 00:30:00,
2013-02-11 19:32:00,42.6,42.6,29.59,SSW,206,0.0,0.0,100,0.00,,---,0.65,VWS V14.01,2013-02-12 00:32:00,
2013-02-11 19:33:00,42.6,42.6,29.59,SSW,206,0.0,0.0,100,0.00,,---,0.65,VWS V14.01,2013-02-12 00:33:00,
2013-02-11 19:34:00,42.6,42.6,29.59,SSW,206,0.0,0.0,100,0.00,,---,0.65,VWS V14.01,2013-02-12 00:34:00,
2013-02-11 19:35:00,42.6,42.6,29.59,SSW,206,0.0,0.0,100,0.00,,---,0.65,VWS V14.01,2013-02-12 00:35:00,
2013-02-11 19:38:00,42.5,42.5,29.59,SSW,206,0.0,0.0,100,0.00,,---,0.65,VWS V14.01,2013-02-12 00:38:00,
2013-02-11 19:39:00,42.5,42.5,29.59,SSW,206,0.0,0.0,100,0.00,,---,0.65,VWS V14.01,2013-02-12 00:39:00,
2013-02-11 19:40:00,42.5,42.5,29.59,SSW,206,0.0,0.0,100,0.00,,---,0.65,VWS V14.01,2013-02-12 00:40:00,
2013-02-11 19:43:00,42.3,42.3,29.59,SSW,206,1.0,1.0,100,0.00,,---,0.65,VWS V14.01,2013-02-12 00:43:00,
2013-02-11 19:44:00,42.3,42.3,29.59,SSW,206,0.0,1.0,100,0.00,,---,0.65,VWS V14.01,2013-02-12 00:44:00,
2013-02-11 19:46:00,42.2,42.2,29.58,SSW,206,0.0,0.0,100,0.00,,---,0.65,VWS V14.01,2013-02-12 00:46:00,
2013-02-11 19:48:00,42.1,42.1,29.58,SSW,206,0.0,0.0,100,0.00,,---,0.65,VWS V14.01,2013-02-12 00:48:00,
2013-02-11 19:49:00,42.1,42.1,29.58,SSW,206,0.0,0.0,100,0.00,,---,0.65,VWS V14.01,2013-02-12 00:49:00,
2013-02-11 19:51:00,41.9,41.9,29.58,SSW,206,0.0,0.0,100,0.00,,---,0.65,VWS V14.01,2013-02-12 00:51:00,
2013-02-11 19:53:00,41.5,41.5,29.58,SSW,206,0.0,0.0,100,0.00,,---,0.65,VWS V14.01,2013-02-12 00:53:00,
2013-02-11 19:54:00,41.3,41.3,29.58,SSW,206,0.0,0.0,100,0.00,,---,0.65,VWS V14.01,2013-02-12 00:54:00,
2013-02-11 19:56:00,41.2,41.2,29.58,SSW,206,0.0,0.0,100,0.00,,---,0.65,VWS V14.01,2013-02-12 00:56:00,
2013-02-11 19:58:00,41.2,41.2,29.58,SSW,206,0.0,0.0,100,0.00,,---,0.65,VWS V14.01,2013-02-12 00:58:00,
2013-02-11 19:59:00,41.2,41.2,29.58,SSW,206,0.0,0.0,100,0.00,,---,0.65,VWS V14.01,2013-02-12 00:59:00,
2013-02-11 20:01:00,41.3,41.3,29.58,SSW,206,0.0,0.0,100,0.00,,---,0.65,VWS V14.01,2013-02-12 01:01:00,
2013-02-11 20:03:00,41.3,41.3,29.58,SSW,206,0.0,0.0,100,0.00,,---,0.65,VWS V14.01,2013-02-12 01:03:00,
2013-02-11 20:04:00,41.3,41.3,29.58,SSW,206,0.0,0.0,100,0.00,,---,0.65,VWS V14.01,2013-02-12 01:04:00,
2013-02-11 20:05:00,41.3,41.3,29.58,SSW,206,0.0,0.0,100,0.00,,---,0.65,VWS V14.01,2013-02-12 01:05:00,
2013-02-11 20:06:00,41.5,41.5,29.58,SSW,206,0.0,0.0,100,0.00,,---,0.65,VWS V14.01,2013-02-12 01:06:00,
2013-02-11 20:08:00,41.5,41.5,29.58,SSW,206,0.0,0.0,100,0.00,,---,0.65,VWS V14.01,2013-02-12 01:08:00,
2013-02-11 20:09:00,41.5,41.5,29.58,SSW,206,0.0,0.0,100,0.00,,---,0.65,VWS V14.01,2013-02-12 01:09:00,
2013-02-11 20:10:00,41.5,41.5,29.58,SSW,206,0.0,0.0,100,0.00,,---,0.65,VWS V14.01,2013-02-12 01:10:00,
2013-02-11 20:11:00,41.5,41.5,29.58,SSW,206,0.0,0.0,100,0.00,,---,0.65,VWS V14.01,2013-02-12 01:11:00,
2013-02-11 20:13:00,41.3,41.3,29.58,SSW,206,0.0,0.0,100,0.00,,---,0.65,VWS V14.01,2013-02-12 01:13:00,
2013-02-11 20:14:00,41.3,41.3,29.58,SSW,206,0.0,0.0,100,0.00,,---,0.65,VWS V14.01,2013-02-12 01:14:00,
2013-02-11 20:15:00,41.3,41.3,29.57,SSW,206,0.0,0.0,100,0.00,,---,0.65,VWS V14.01,2013-02-12 01:15:00,
2013-02-11 20:16:00,41.3,41.3,29.57,SSW,206,0.0,0.0,100,0.00,,---,0.65,VWS V14.01,2013-02-12 01:16:00,
2013-02-11 20:18:00,41.2,41.2,29.57,SSW,206,0.0,0.0,100,0.00,,---,0.65,VWS V14.01,2013-02-12 01:18:00,
2013-02-11 20:19:00,41.2,41.2,29.57,SSW,206,0.0,0.0,100,0.00,,---,0.65,VWS V14.01,2013-02-12 01:19:00,
2013-02-11 20:20:00,41.2,41.2,29.57,SSW,206,0.0,0.0,100,0.00,,---,0.65,VWS V14.01,2013-02-12 01:20:00,
2013-02-11 20:21:00,41.2,41.2,29.57,SSW,206,0.0,0.0,100,0.00,,---,0.65,VWS V14.01,2013-02-12 01:21:00,
2013-02-11 20:23:00,41.1,41.1,29.57,SSW,206,0.0,0.0,100,0.00,,---,0.65,VWS V14.01,2013-02-12 01:23:00,
2013-02-11 20:24:00,41.1,41.1,29.57,SSW,206,0.0,0.0,100,0.00,,---,0.65,VWS V14.01,2013-02-12 01:24:00,
2013-02-11 20:25:00,41.1,41.1,29.57,SSW,206,0.0,0.0,100,0.00,,---,0.65,VWS V14.01,2013-02-12 01:25:00,
2013-02-11 20:26:00,41.1,41.1,29.57,SSW,206,0.0,0.0,100,0.00,,---,0.65,VWS V14.01,2013-02-12 01:26:00,
2013-02-11 20:28:00,40.9,40.9,29.57,SSW,206,0.0,0.0,100,0.00,,---,0.65,VWS V14.01,2013-02-12 01:28:00,
2013-02-11 20:29:00,40.9,40.9,29.57,SSW,206,0.0,0.0,100,0.00,,---,0.65,VWS V14.01,2013-02-12 01:29:00,
2013-02-11 20:30:00,40.9,40.9,29.56,SSW,206,0.0,0.0,100,0.00,,---,0.65,VWS V14.01,2013-02-12 01:30:00,
2013-02-11 20:31:00,40.9,40.9,29.56,SSW,206,0.0,0.0,100,0.00,,---,0.65,VWS V14.01,2013-02-12 01:31:00,
2013-02-11 20:33:00,40.9,40.9,29.56,SSW,206,0.0,0.0,100,0.00,,---,0.65,VWS V14.01,2013-02-12 01:33:00,
2013-02-11 20:35:00,41.1,41.1,29.56,SSW,206,0.0,0.0,100,0.00,,---,0.65,VWS V14.01,2013-02-12 01:35:00,
2013-02-11 20:36:00,41.1,41.1,29.56,SSW,206,0.0,0.0,100,0.00,,---,0.65,VWS V14.01,2013-02-12 01:36:00,
2013-02-11 20:38:00,41.2,41.2,29.56,SSW,206,0.0,0.0,100,0.00,,---,0.65,VWS V14.01,2013-02-12 01:38:00,
2013-02-11 20:40:00,41.2,41.2,29.56,SSW,206,0.0,0.0,100,0.00,,---,0.65,VWS V14.01,2013-02-12 01:40:00,
2013-02-11 20:41:00,41.3,41.3,29.56,SSW,206,0.0,0.0,100,0.00,,---,0.65,VWS V14.01,2013-02-12 01:41:00,
2013-02-11 20:43:00,41.3,41.3,29.56,SSW,206,0.0,0.0,100,0.00,,---,0.65,VWS V14.01,2013-02-12 01:43:00,
2013-02-11 20:45:00,41.3,41.3,29.56,SSW,206,0.0,0.0,100,0.00,,---,0.65,VWS V14.01,2013-02-12 01:45:00,
2013-02-11 20:47:00,41.3,41.3,29.56,SSW,206,0.0,0.0,100,0.00,,---,0.65,VWS V14.01,2013-02-12 01:47:00,
2013-02-11 20:48:00,41.3,41.3,29.56,SSW,206,0.0,0.0,100,0.00,,---,0.65,VWS V14.01,2013-02-12 01:48:00,
2013-02-11 20:50:00,41.2,41.2,29.56,SSW,206,0.0,0.0,100,0.00,,---,0.65,VWS V14.01,2013-02-12 01:50:00,
2013-02-11 20:52:00,41.1,41.1,29.56,SSW,206,0.0,0.0,100,0.00,,---,0.65,VWS V14.01,2013-02-12 01:52:00,
2013-02-11 20:53:00,40.9,40.9,29.56,SSW,206,0.0,0.0,100,0.00,,---,0.65,VWS V14.01,2013-02-12 01:53:00,
2013-02-11 20:55:00,40.6,40.6,29.56,SSW,206,0.0,0.0,100,0.00,,---,0.65,VWS V14.01,2013-02-12 01:55:00,
2013-02-11 20:57:00,40.3,40.3,29.56,SSW,206,0.0,0.0,100,0.00,,---,0.65,VWS V14.01,2013-02-12 01:57:00,
2013-02-11 20:59:00,40.3,40.3,29.56,SSW,206,0.0,0.0,100,0.00,,---,0.65,VWS V14.01,2013-02-12 01:59:00,
2013-02-11 21:00:00,40.2,40.2,29.55,SSW,206,0.0,0.0,100,0.00,,---,0.65,VWS V14.01,2013-02-12 02:00:00,
2013-02-11 21:02:00,40.2,40.2,29.55,SSW,206,0.0,0.0,100,0.00,,---,0.65,VWS V14.01,2013-02-12 02:02:00,
2013-02-11 21:04:00,40.2,40.2,29.55,SSW,206,0.0,0.0,100,0.00,,---,0.65,VWS V14.01,2013-02-12 02:04:00,
2013-02-11 21:05:00,40.1,40.1,29.55,SSW,206,0.0,0.0,100,0.00,,---,0.65,VWS V14.01,2013-02-12 02:05:00,
2013-02-11 21:07:00,39.9,39.9,29.55,SSW,206,0.0,0.0,100,0.00,,---,0.65,VWS V14.01,2013-02-12 02:07:00,
2013-02-11 21:09:00,39.8,39.8,29.55,SSW,206,0.0,0.0,100,0.00,,---,0.65,VWS V14.01,2013-02-12 02:09:00,
2013-02-11 21:10:00,39.5,39.5,29.55,SSW,206,0.0,0.0,100,0.00,,---,0.65,VWS V14.01,2013-02-12 02:10:00,
2013-02-11 21:11:00,39.5,39.5,29.55,SSW,206,0.0,0.0,100,0.00,,---,0.65,VWS V14.01,2013-02-12 02:11:00,
2013-02-11 21:12:00,39.3,39.3,29.55,SSW,206,0.0,0.0,100,0.00,,---,0.65,VWS V14.01,2013-02-12 02:12:00,
2013-02-11 21:14:00,39.1,39.1,29.55,SSW,206,0.0,0.0,100,0.00,,---,0.65,VWS V14.01,2013-02-12 02:14:00,
2013-02-11 21:16:00,38.9,38.9,29.56,SSW,206,0.0,0.0,100,0.00,,---,0.65,VWS V14.01,2013-02-12 02:16:00,
2013-02-11 21:17:00,38.8,38.8,29.56,SSW,206,0.0,0.0,100,0.00,,---,0.65,VWS V14.01,2013-02-12 02:17:00,
2013-02-11 21:19:00,38.8,38.8,29.56,SSW,206,0.0,0.0,100,0.01,,---,0.66,VWS V14.01,2013-02-12 02:19:00,
2013-02-11 21:21:00,38.8,38.8,29.56,SSW,206,0.0,0.0,100,0.01,,---,0.66,VWS V14.01,2013-02-12 02:21:00,
2013-02-11 21:22:00,38.8,38.8,29.56,SSW,206,0.0,0.0,100,0.01,,---,0.66,VWS V14.01,2013-02-12 02:22:00,
2013-02-11 21:24:00,38.9,38.9,29.56,SSW,206,0.0,0.0,100,0.01,,---,0.66,VWS V14.01,2013-02-12 02:24:00,
2013-02-11 21:26:00,38.9,38.9,29.56,SSW,206,0.0,0.0,100,0.01,,---,0.66,VWS V14.01,2013-02-12 02:26:00,
2013-02-11 21:27:00,39.1,39.1,29.56,SSW,206,0.0,0.0,100,0.01,,---,0.66,VWS V14.01,2013-02-12 02:27:00,
2013-02-11 21:29:00,39.1,39.1,29.56,SSW,206,0.0,0.0,100,0.01,,---,0.66,VWS V14.01,2013-02-12 02:29:00,
2013-02-11 21:31:00,39.1,39.1,29.56,SSW,206,0.0,0.0,100,0.01,,---,0.66,VWS V14.01,2013-02-12 02:31:00,
2013-02-11 21:32:00,39.1,39.1,29.56,SSW,206,0.0,0.0,100,0.01,,---,0.66,VWS V14.01,2013-02-12 02:32:00,
2013-02-11 21:34:00,39.1,39.1,29.56,SSW,206,0.0,0.0,100,0.01,,---,0.66,VWS V14.01,2013-02-12 02:34:00,
2013-02-11 21:36:00,39.1,39.1,29.56,SSW,206,0.0,0.0,100,0.01,,---,0.66,VWS V14.01,2013-02-12 02:36:00,
2013-02-11 21:38:00,39.1,39.1,29.56,SSW,206,0.0,0.0,100,0.01,,---,0.66,VWS V14.01,2013-02-12 02:38:00,
2013-02-11 21:39:00,39.1,39.1,29.56,SSW,206,0.0,0.0,100,0.01,,---,0.66,VWS V14.01,2013-02-12 02:39:00,
2013-02-11 21:41:00,39.2,39.2,29.56,SSW,206,0.0,0.0,100,0.01,,---,0.66,VWS V14.01,2013-02-12 02:41:00,
2013-02-11 21:43:00,39.2,39.2,29.56,SSW,206,0.0,0.0,100,0.01,,---,0.66,VWS V14.01,2013-02-12 02:43:00,
2013-02-11 21:44:00,39.2,39.2,29.55,SSW,206,0.0,0.0,100,0.01,,---,0.66,VWS V14.01,2013-02-12 02:44:00,
2013-02-11 21:46:00,39.2,39.2,29.55,SSW,206,0.0,0.0,100,0.01,,---,0.66,VWS V14.01,2013-02-12 02:46:00,
2013-02-11 21:48:00,39.2,39.2,29.55,SSW,206,0.0,0.0,100,0.01,,---,0.66,VWS V14.01,2013-02-12 02:48:00,
2013-02-11 21:50:00,39.2,39.2,29.55,SSW,206,0.0,0.0,100,0.01,,---,0.66,VWS V14.01,2013-02-12 02:50:00,
2013-02-11 21:51:00,39.2,39.2,29.55,SSW,206,0.0,0.0,100,0.01,,---,0.66,VWS V14.01,2013-02-12 02:51:00,
2013-02-11 21:53:00,39.1,39.1,29.55,SSW,206,0.0,0.0,100,0.01,,---,0.66,VWS V14.01,2013-02-12 02:53:00,
2013-02-11 21:55:00,38.8,38.8,29.55,SSW,206,0.0,0.0,100,0.01,,---,0.66,VWS V14.01,2013-02-12 02:55:00,
2013-02-11 21:56:00,38.5,38.5,29.55,SSW,206,0.0,0.0,100,0.01,,---,0.66,VWS V14.01,2013-02-12 02:56:00,
2013-02-11 21:57:00,38.2,38.2,29.55,SSW,206,0.0,0.0,100,0.01,,---,0.66,VWS V14.01,2013-02-12 02:57:00,
2013-02-11 21:58:00,37.9,37.9,29.55,SSW,206,0.0,0.0,100,0.01,,---,0.66,VWS V14.01,2013-02-12 02:58:00,
2013-02-11 22:00:00,37.5,37.5,29.56,SSW,206,0.0,0.0,100,0.01,,---,0.66,VWS V14.01,2013-02-12 03:00:00,
2013-02-11 22:01:00,37.3,37.3,29.56,SSW,206,0.0,0.0,100,0.01,,---,0.66,VWS V14.01,2013-02-12 03:01:00,
2013-02-11 22:02:00,37.2,37.2,29.56,SSW,206,0.0,0.0,100,0.01,,---,0.66,VWS V14.01,2013-02-12 03:02:00,
2013-02-11 22:03:00,37.2,37.2,29.56,SSW,206,0.0,0.0,100,0.01,,---,0.66,VWS V14.01,2013-02-12 03:03:00,
2013-02-11 22:05:00,37.2,37.2,29.56,SSW,206,0.0,0.0,100,0.01,,---,0.66,VWS V14.01,2013-02-12 03:05:00,
2013-02-11 22:06:00,37.3,37.3,29.56,SSW,206,0.0,0.0,100,0.01,,---,0.66,VWS V14.01,2013-02-12 03:06:00,
2013-02-11 22:07:00,37.6,37.6,29.56,SSW,206,0.0,0.0,100,0.01,,---,0.66,VWS V14.01,2013-02-12 03:07:00,
2013-02-11 22:08:00,38.2,38.2,29.56,SSW,209,1.0,2.0,100,0.01,,---,0.66,VWS V14.01,2013-02-12 03:08:00,
2013-02-11 22:10:00,38.9,38.9,29.56,WSW,254,0.0,2.0,100,0.01,,---,0.66,VWS V14.01,2013-02-12 03:10:00,
2013-02-11 22:11:00,39.2,39.2,29.56,WSW,254,2.0,2.0,100,0.01,,---,0.66,VWS V14.01,2013-02-12 03:11:00,
2013-02-11 22:12:00,39.3,39.3,29.56,WNW,284,1.0,2.0,100,0.01,,---,0.66,VWS V14.01,2013-02-12 03:12:00,
2013-02-11 22:14:00,39.8,39.8,29.56,WNW,284,2.0,2.0,100,0.01,,---,0.66,VWS V14.01,2013-02-12 03:14:00,
2013-02-11 22:15:00,39.8,39.8,29.56,WNW,285,2.0,3.0,100,0.01,,---,0.66,VWS V14.01,2013-02-12 03:15:00,
2013-02-11 22:16:00,39.9,39.9,29.56,WNW,285,0.0,0.0,100,0.01,,---,0.66,VWS V14.01,2013-02-12 03:16:00,
2013-02-11 22:17:00,39.9,39.9,29.56,WNW,285,0.0,1.0,100,0.01,,---,0.66,VWS V14.01,2013-02-12 03:17:00,
2013-02-11 22:19:00,39.9,39.9,29.56,WNW,285,0.0,1.0,100,0.01,,---,0.66,VWS V14.01,2013-02-12 03:19:00,
2013-02-11 22:21:00,40.1,40.1,29.56,WNW,285,0.0,1.0,100,0.01,,---,0.66,VWS V14.01,2013-02-12 03:21:00,
2013-02-11 22:22:00,40.2,40.2,29.56,WNW,285,0.0,1.0,100,0.01,,---,0.66,VWS V14.01,2013-02-12 03:22:00,
2013-02-11 22:24:00,40.2,40.2,29.56,WNW,285,0.0,1.0,100,0.01,,---,0.66,VWS V14.01,2013-02-12 03:24:00,
2013-02-11 22:26:00,40.3,40.3,29.56,WNW,285,0.0,1.0,100,0.01,,---,0.66,VWS V14.01,2013-02-12 03:26:00,
2013-02-11 22:27:00,40.3,40.3,29.56,WNW,285,0.0,1.0,100,0.01,,---,0.66,VWS V14.01,2013-02-12 03:27:00,
2013-02-11 22:29:00,40.3,40.3,29.56,WNW,285,0.0,1.0,100,0.01,,---,0.66,VWS V14.01,2013-02-12 03:29:00,
2013-02-11 22:31:00,40.2,40.2,29.56,WNW,285,0.0,0.0,100,0.00,,---,0.66,VWS V14.01,2013-02-12 03:31:00,
2013-02-11 22:32:00,40.2,40.2,29.56,WNW,285,0.0,0.0,100,0.00,,---,0.66,VWS V14.01,2013-02-12 03:32:00,
2013-02-11 22:34:00,40.3,40.3,29.56,WNW,285,0.0,0.0,100,0.00,,---,0.66,VWS V14.01,2013-02-12 03:34:00,
2013-02-11 22:36:00,40.5,40.5,29.56,WNW,284,0.0,0.0,100,0.00,,---,0.66,VWS V14.01,2013-02-12 03:36:00,
2013-02-11 22:37:00,40.6,40.6,29.56,WNW,284,0.0,0.0,100,0.00,,---,0.66,VWS V14.01,2013-02-12 03:37:00,
2013-02-11 22:39:00,40.6,40.6,29.56,West,263,2.0,2.0,100,0.00,,---,0.66,VWS V14.01,2013-02-12 03:39:00,
2013-02-11 22:41:00,40.6,40.6,29.56,SSW,192,0.0,3.0,100,0.00,,---,0.66,VWS V14.01,2013-02-12 03:41:00,
2013-02-11 22:42:00,40.6,40.6,29.56,SSW,192,0.0,3.0,100,0.00,,---,0.66,VWS V14.01,2013-02-12 03:42:00,
2013-02-11 22:44:00,40.5,40.5,29.56,SSW,192,0.0,3.0,100,0.00,,---,0.66,VWS V14.01,2013-02-12 03:44:00,
2013-02-11 22:46:00,40.3,40.3,29.55,SSW,192,0.0,0.0,100,0.00,,---,0.66,VWS V14.01,2013-02-12 03:46:00,
2013-02-11 22:47:00,40.2,40.2,29.55,SSW,192,0.0,0.0,100,0.00,,---,0.66,VWS V14.01,2013-02-12 03:47:00,
2013-02-11 22:49:00,40.1,40.1,29.55,SSW,192,0.0,0.0,100,0.00,,---,0.66,VWS V14.01,2013-02-12 03:49:00,
2013-02-11 22:51:00,39.6,39.6,29.55,SSW,192,0.0,0.0,100,0.00,,---,0.66,VWS V14.01,2013-02-12 03:51:00,
2013-02-11 22:52:00,39.6,39.6,29.55,SSW,192,0.0,0.0,100,0.00,,---,0.66,VWS V14.01,2013-02-12 03:52:00,
2013-02-11 22:54:00,39.3,39.3,29.55,SSW,192,0.0,0.0,100,0.00,,---,0.66,VWS V14.01,2013-02-12 03:54:00,
2013-02-11 22:56:00,39.2,39.2,29.55,SSW,192,0.0,0.0,100,0.00,,---,0.66,VWS V14.01,2013-02-12 03:56:00,
2013-02-11 22:57:00,39.2,39.2,29.55,SSW,192,0.0,0.0,100,0.00,,---,0.66,VWS V14.01,2013-02-12 03:57:00,
2013-02-11 22:58:00,39.1,39.1,29.55,SSW,193,2.0,2.0,100,0.00,,---,0.66,VWS V14.01,2013-02-12 03:58:00,
2013-02-11 23:00:00,39.2,39.2,29.55,SSW,193,0.0,2.0,100,0.00,,---,0.66,VWS V14.01,2013-02-12 04:00:00,
2013-02-11 23:02:00,39.3,39.3,29.55,SSW,195,0.0,2.0,100,0.00,,---,0.66,VWS V14.01,2013-02-12 04:02:00,
2013-02-11 23:03:00,39.3,39.3,29.55,SSW,195,0.0,2.0,100,0.00,,---,0.66,VWS V14.01,2013-02-12 04:03:00,
2013-02-11 23:05:00,39.5,39.5,29.55,SSW,195,0.0,2.0,100,0.00,,---,0.66,VWS V14.01,2013-02-12 04:05:00,
2013-02-11 23:07:00,39.3,39.3,29.55,SSW,195,0.0,2.0,100,0.00,,---,0.66,VWS V14.01,2013-02-12 04:07:00,
2013-02-11 23:08:00,39.2,39.2,29.55,SSW,195,0.0,2.0,100,0.00,,---,0.66,VWS V14.01,2013-02-12 04:08:00,
2013-02-11 23:10:00,38.8,38.8,29.55,SSW,195,0.0,2.0,100,0.00,,---,0.66,VWS V14.01,2013-02-12 04:10:00,
2013-02-11 23:12:00,38.0,38.0,29.55,SSW,195,0.0,2.0,100,0.00,,---,0.66,VWS V14.01,2013-02-12 04:12:00,
2013-02-11 23:13:00,37.6,37.6,29.55,SSW,195,0.0,2.0,100,0.00,,---,0.66,VWS V14.01,2013-02-12 04:13:00,
2013-02-11 23:15:00,37.2,37.2,29.55,SSW,195,0.0,2.0,100,0.00,,---,0.66,VWS V14.01,2013-02-12 04:15:00,
2013-02-11 23:17:00,36.8,36.8,29.55,SSW,195,0.0,0.0,100,0.00,,---,0.66,VWS V14.01,2013-02-12 04:17:00,
2013-02-11 23:18:00,36.5,36.5,29.55,SSW,195,0.0,0.0,100,0.00,,---,0.66,VWS V14.01,2013-02-12 04:18:00,
2013-02-11 23:20:00,36.2,36.2,29.55,SSW,195,0.0,0.0,100,0.00,,---,0.66,VWS V14.01,2013-02-12 04:20:00,
2013-02-11 23:22:00,36.0,36.0,29.55,SSW,195,0.0,0.0,100,0.00,,---,0.66,VWS V14.01,2013-02-12 04:22:00,
2013-02-11 23:24:00,35.8,35.8,29.55,SSW,195,0.0,0.0,100,0.00,,---,0.66,VWS V14.01,2013-02-12 04:24:00,
2013-02-11 23:25:00,35.5,35.5,29.55,SSW,195,0.0,1.0,100,0.00,,---,0.66,VWS V14.01,2013-02-12 04:25:00,
2013-02-11 23:27:00,35.5,35.5,29.55,SSW,195,0.0,1.0,100,0.00,,---,0.66,VWS V14.01,2013-02-12 04:27:00,
2013-02-11 23:29:00,35.5,35.5,29.55,SSW,195,0.0,1.0,100,0.00,,---,0.66,VWS V14.01,2013-02-12 04:29:00,
2013-02-11 23:31:00,35.6,35.6,29.56,SSW,195,0.0,0.0,100,0.00,,---,0.66,VWS V14.01,2013-02-12 04:31:00,
2013-02-11 23:32:00,35.6,35.6,29.56,SSW,195,0.0,0.0,100,0.00,,---,0.66,VWS V14.01,2013-02-12 04:32:00,
2013-02-11 23:34:00,35.5,35.5,29.56,SSW,195,0.0,0.0,100,0.00,,---,0.66,VWS V14.01,2013-02-12 04:34:00,
2013-02-11 23:36:00,35.3,35.3,29.56,SSW,195,0.0,0.0,100,0.00,,---,0.66,VWS V14.01,2013-02-12 04:36:00,
2013-02-11 23:37:00,35.2,35.2,29.56,SSW,195,0.0,0.0,100,0.00,,---,0.66,VWS V14.01,2013-02-12 04:37:00,
2013-02-11 23:39:00,35.2,35.2,29.56,SSW,195,0.0,0.0,100,0.00,,---,0.66,VWS V14.01,2013-02-12 04:39:00,
2013-02-11 23:41:00,35.5,35.5,29.56,SSW,195,0.0,0.0,100,0.00,,---,0.66,VWS V14.01,2013-02-12 04:41:00,
2013-02-11 23:42:00,35.8,35.8,29.56,SSW,195,0.0,0.0,100,0.00,,---,0.66,VWS V14.01,2013-02-12 04:42:00,
2013-02-11 23:44:00,36.2,36.2,29.56,SSW,195,2.0,2.0,100,0.00,,---,0.66,VWS V14.01,2013-02-12 04:44:00,
2013-02-11 23:46:00,36.9,36.9,29.56,SSW,195,0.0,0.0,100,0.00,,---,0.66,VWS V14.01,2013-02-12 04:46:00,
2013-02-11 23:47:00,37.2,37.2,29.56,SSW,205,2.0,2.0,100,0.00,,---,0.66,VWS V14.01,2013-02-12 04:47:00,
2013-02-11 23:49:00,37.8,37.8,29.56,WNW,299,1.0,2.0,100,0.00,,---,0.66,VWS V14.01,2013-02-12 04:49:00,
2013-02-11 23:51:00,38.0,38.0,29.56,WNW,299,0.0,2.0,100,0.00,,---,0.66,VWS V14.01,2013-02-12 04:51:00,
2013-02-11 23:52:00,38.2,38.2,29.56,WNW,291,1.0,3.0,100,0.00,,---,0.66,VWS V14.01,2013-02-12 04:52:00,
2013-02-11 23:54:00,38.6,38.6,29.56,WNW,296,0.0,5.0,100,0.00,,---,0.66,VWS V14.01,2013-02-12 04:54:00,
2013-02-11 23:56:00,38.8,38.8,29.56,WNW,296,1.0,5.0,100,0.00,,---,0.66,VWS V14.01,2013-02-12 04:56:00,
2013-02-11 23:57:00,38.9,38.9,29.56,WNW,292,1.0,5.0,100,0.00,,---,0.66,VWS V14.01,2013-02-12 04:57:00,
2013-02-11 23:58:00,38.9,38.9,29.56,WNW,292,1.0,5.0,100,0.00,,---,0.66,VWS V14.01,2013-02-12 04:58:00,
2013-02-11 23:59:00,39.2,39.2,29.56,WNW,287,3.0,5.0,100,0.00,,---,0.66,VWS V14.01,2013-02-12 04:59:00,